Observation data for Persimmon Gap on 03/11/2018      Previous  Date  Next       Current Mesonet Observations  Soil Data  Daily Summary Page  Observations in Plain Language
KPG1 110600Z 19002KT 20/M10 A2992 RMK A01 T02011103  RH  012%=      5-min Rain = 0
KPG1 110601Z 19001KT 20/M10 A2992 RMK A01 T02011103  RH  012%=      5-min Rain = 0
KPG1 110602Z 23001KT 20/M10 A2992 RMK A01 T01991103  RH  012%=      5-min Rain = 0
KPG1 110603Z 28002KT 20/M10 A2993 RMK A01 T01971103  RH  012%=      5-min Rain = 0
KPG1 110604Z 27002KT 20/M10 A2993 RMK A01 T01971103  RH  012%=      5-min Rain = 0
KPG1 110605Z 24003KT 20/M10 A2993 RMK A01 T01991102  RH  012%=      5-min Rain = 0
KPG1 110606Z 21003KT 20/M10 A2992 RMK A01 T02001103  RH  012%=      5-min Rain = 0
KPG1 110607Z 23003KT 20/M10 A2992 RMK A01 T02011103  RH  012%=      5-min Rain = 0
KPG1 110608Z 27004KT 20/M10 A2992 RMK A01 T02011103  RH  012%=      5-min Rain = 0
KPG1 110609Z 23003KT 20/M10 A2992 RMK A01 T02011103  RH  012%=      5-min Rain = 0
KPG1 110610Z 20003KT 20/M10 A2992 RMK A01 T02011103  RH  012%=      5-min Rain = 0
KPG1 110611Z 21002KT 20/M10 A2992 RMK A01 T02011103  RH  012%=      5-min Rain = 0
KPG1 110612Z 21002KT 20/M10 A2992 RMK A01 T02011103  RH  012%=      5-min Rain = 0
KPG1 110613Z 24002KT 20/M10 A2992 RMK A01 T02001102  RH  012%=      5-min Rain = 0
KPG1 110614Z 23003KT 20/M10 A2992 RMK A01 T01981103  RH  012%=      5-min Rain = 0
KPG1 110615Z 22003KT 20/M10 A2992 RMK A01 T01981103  RH  012%=      5-min Rain = 0
KPG1 110616Z 23003KT 20/M10 A2992 RMK A01 T01981103  RH  012%=      5-min Rain = 0
KPG1 110617Z 23003KT 20/M10 A2992 RMK A01 T01981103  RH  012%=      5-min Rain = 0
KPG1 110618Z 23003KT 20/M10 A2993 RMK A01 T01981103  RH  012%=      5-min Rain = 0
KPG1 110619Z 24003KT 20/M10 A2993 RMK A01 T01971103  RH  012%=      5-min Rain = 0
KPG1 110620Z 26004KT 20/M10 A2993 RMK A01 T01971102  RH  012%=      5-min Rain = 0
KPG1 110621Z 24003KT 20/M10 A2993 RMK A01 T01971102  RH  012%=      5-min Rain = 0
KPG1 110622Z 25004KT 20/M10 A2993 RMK A01 T01971103  RH  012%=      5-min Rain = 0
KPG1 110623Z 25004KT 20/M10 A2993 RMK A01 T01981103  RH  012%=      5-min Rain = 0
KPG1 110624Z 26004KT 20/M10 A2993 RMK A01 T01981103  RH  012%=      5-min Rain = 0
KPG1 110625Z 24004KT 20/M10 A2994 RMK A01 T01981103  RH  012%=      5-min Rain = 0
KPG1 110626Z 22004KT 20/M10 A2994 RMK A01 T01981103  RH  012%=      5-min Rain = 0
KPG1 110627Z 20004KT 20/M10 A2994 RMK A01 T01981103  RH  012%=      5-min Rain = 0
KPG1 110628Z 20003KT 20/M10 A2993 RMK A01 T01981103  RH  012%=      5-min Rain = 0
KPG1 110629Z 20003KT 20/M10 A2993 RMK A01 T01971104  RH  012%=      5-min Rain = 0
KPG1 110630Z 19003KT 20/M10 A2993 RMK A01 T01961104  RH  012%=      5-min Rain = 0
KPG1 110631Z 19003KT 20/M10 A2993 RMK A01 T01961104  RH  012%=      5-min Rain = 0
KPG1 110632Z 18002KT 20/M10 A2993 RMK A01 T01951104  RH  012%=      5-min Rain = 0
KPG1 110633Z 20002KT 19/M10 A2993 RMK A01 T01941104  RH  012%=      5-min Rain = 0
KPG1 110634Z 20002KT 19/M10 A2993 RMK A01 T01941104  RH  012%=      5-min Rain = 0
KPG1 110635Z 18004KT 19/M10 A2993 RMK A01 T01931103  RH  012%=      5-min Rain = 0
KPG1 110636Z 17005KT 19/M10 A2993 RMK A01 T01931103  RH  013%=      5-min Rain = 0
KPG1 110637Z 18005KT 19/M10 A2993 RMK A01 T01931102  RH  013%=      5-min Rain = 0
KPG1 110638Z 18004KT 19/M10 A2993 RMK A01 T01921102  RH  013%=      5-min Rain = 0
KPG1 110639Z 18004KT 19/M10 A2993 RMK A01 T01911102  RH  013%=      5-min Rain = 0
KPG1 110640Z 18003KT 19/M10 A2994 RMK A01 T01901102  RH  013%=      5-min Rain = 0
KPG1 110641Z 18004KT 19/M10 A2994 RMK A01 T01891101  RH  013%=      5-min Rain = 0
KPG1 110642Z 18004KT 19/M10 A2994 RMK A01 T01891101  RH  013%=      5-min Rain = 0
KPG1 110643Z 18004KT 19/M10 A2994 RMK A01 T01891102  RH  013%=      5-min Rain = 0
KPG1 110644Z 18004KT 19/M10 A2994 RMK A01 T01891102  RH  013%=      5-min Rain = 0
KPG1 110645Z 18003KT 19/M10 A2994 RMK A01 T01891101  RH  013%=      5-min Rain = 0
KPG1 110646Z 17003KT 19/M10 A2993 RMK A01 T01881101  RH  013%=      5-min Rain = 0
KPG1 110647Z 17002KT 19/M10 A2993 RMK A01 T01881101  RH  013%=      5-min Rain = 0
KPG1 110648Z 19003KT 19/M10 A2994 RMK A01 T01881101  RH  013%=      5-min Rain = 0
KPG1 110649Z 19004KT 19/M10 A2993 RMK A01 T01891101  RH  013%=      5-min Rain = 0
KPG1 110650Z 20005KT 19/M10 A2993 RMK A01 T01901101  RH  013%=      5-min Rain = 0
KPG1 110651Z 20005KT 19/M10 A2993 RMK A01 T01911101  RH  013%=      5-min Rain = 0
KPG1 110652Z 20004KT 19/M10 A2993 RMK A01 T01911100  RH  013%=      5-min Rain = 0
KPG1 110653Z 19003KT 19/M10 A2993 RMK A01 T01911100  RH  013%=      5-min Rain = 0
KPG1 110654Z 18002KT 19/M10 A2994 RMK A01 T01911100  RH  013%=      5-min Rain = 0
KPG1 110655Z 14002KT 19/M10 A2994 RMK A01 T01901100  RH  013%=      5-min Rain = 0
KPG1 110656Z 13001KT 19/M10 A2994 RMK A01 T01901099  RH  013%=      5-min Rain = 0
KPG1 110657Z 13001KT 19/M10 A2994 RMK A01 T01901099  RH  013%=      5-min Rain = 0
KPG1 110658Z 15001KT 19/M10 A2994 RMK A01 T01911100  RH  013%=      5-min Rain = 0
KPG1 110659Z 17002KT 19/M10 A2994 RMK A01 T01911099  RH  013%=      5-min Rain = 0
KPG1 110700Z 17003KT 19/M10 A2994 RMK A01 T01921098  RH  013%=      5-min Rain = 0
KPG1 110701Z 17004KT 19/M10 A2994 RMK A01 T01931099  RH  013%=      5-min Rain = 0
KPG1 110702Z 16004KT 20/M10 A2994 RMK A01 T01951098  RH  013%=      5-min Rain = 0
KPG1 110703Z 17004KT 20/M10 A2994 RMK A01 T01971098  RH  013%=      5-min Rain = 0
KPG1 110704Z 18003KT 20/M10 A2994 RMK A01 T01971097  RH  013%=      5-min Rain = 0
KPG1 110705Z 18004KT 20/M10 A2994 RMK A01 T01971097  RH  013%=      5-min Rain = 0
KPG1 110706Z 18003KT 20/M10 A2994 RMK A01 T01971097  RH  013%=      5-min Rain = 0
KPG1 110707Z 18002KT 20/M10 A2994 RMK A01 T01971098  RH  013%=      5-min Rain = 0
KPG1 110708Z 18002KT 20/M10 A2994 RMK A01 T01971098  RH  013%=      5-min Rain = 0
KPG1 110709Z 21002KT 20/M10 A2994 RMK A01 T01991098  RH  013%=      5-min Rain = 0
KPG1 110710Z 21001KT 20/M10 A2994 RMK A01 T01991097  RH  013%=      5-min Rain = 0
KPG1 110711Z 21001KT 20/M10 A2994 RMK A01 T01991096  RH  013%=      5-min Rain = 0
KPG1 110712Z 19002KT 20/M10 A2994 RMK A01 T01991096  RH  013%=      5-min Rain = 0
KPG1 110713Z 18003KT 20/M10 A2994 RMK A01 T01981096  RH  013%=      5-min Rain = 0
KPG1 110714Z 18004KT 20/M10 A2994 RMK A01 T01981097  RH  013%=      5-min Rain = 0
KPG1 110715Z 18003KT 20/M10 A2994 RMK A01 T01991097  RH  013%=      5-min Rain = 0
KPG1 110716Z 19003KT 20/M10 A2994 RMK A01 T02001097  RH  013%=      5-min Rain = 0
KPG1 110717Z 19003KT 20/M10 A2994 RMK A01 T02011098  RH  012%=      5-min Rain = 0
KPG1 110718Z 18002KT 20/M10 A2994 RMK A01 T02001097  RH  013%=      5-min Rain = 0
KPG1 110719Z 24001KT 20/M10 A2994 RMK A01 T02011097  RH  013%=      5-min Rain = 0
KPG1 110720Z 30003KT 20/M10 A2994 RMK A01 T02001096  RH  013%=      5-min Rain = 0
KPG1 110721Z 30006KT 20/M10 A2994 RMK A01 T02001095  RH  013%=      5-min Rain = 0
KPG1 110722Z 29004KT 20/M09 A2995 RMK A01 T02041090  RH  013%=      5-min Rain = 0
KPG1 110723Z 30005KT 21/M09 A2995 RMK A01 T02071089  RH  013%=      5-min Rain = 0
KPG1 110724Z 30005KT 21/M09 A2995 RMK A01 T02121087  RH  013%=      5-min Rain = 0
KPG1 110725Z 29004KT 22/M09 A2995 RMK A01 T02181086  RH  012%=      5-min Rain = 0
KPG1 110726Z 24004KT 22/M09 A2995 RMK A01 T02211089  RH  012%=      5-min Rain = 0
KPG1 110727Z 27005KT 22/M09 A2995 RMK A01 T02171093  RH  012%=      5-min Rain = 0
KPG1 110728Z 30006KT 22/M09 A2995 RMK A01 T02151090  RH  012%=      5-min Rain = 0
KPG1 110729Z 29006KT 22/M09 A2995 RMK A01 T02191087  RH  012%=      5-min Rain = 0
KPG1 110730Z 30007KT 22/M09 A2994 RMK A01 T02231086  RH  012%=      5-min Rain = 0
KPG1 110731Z 30007KT 23/M09 A2994 RMK A01 T02281087  RH  011%=      5-min Rain = 0
KPG1 110732Z 29006KT 23/M09 A2994 RMK A01 T02311088  RH  011%=      5-min Rain = 0
KPG1 110733Z 28006KT 23/M09 A2994 RMK A01 T02341087  RH  011%=      5-min Rain = 0
KPG1 110734Z 29009KT 23/M09 A2994 RMK A01 T02331088  RH  011%=      5-min Rain = 0
KPG1 110735Z 29008KT 23/M09 A2994 RMK A01 T02321090  RH  011%=      5-min Rain = 0
KPG1 110736Z 29007KT 23/M09 A2995 RMK A01 T02321090  RH  011%=      5-min Rain = 0
KPG1 110737Z 30006KT 23/M09 A2994 RMK A01 T02301090  RH  011%=      5-min Rain = 0
KPG1 110738Z 30008KT 23/M09 A2994 RMK A01 T02291091  RH  011%=      5-min Rain = 0
KPG1 110739Z 31009KT 23/M09 A2994 RMK A01 T02291091  RH  011%=      5-min Rain = 0
KPG1 110740Z 31009KT 23/M09 A2994 RMK A01 T02291092  RH  011%=      5-min Rain = 0
KPG1 110741Z 31010KT 23/M09 A2994 RMK A01 T02301092  RH  011%=      5-min Rain = 0
KPG1 110742Z 29009KT 23/M09 A2994 RMK A01 T02311091  RH  011%=      5-min Rain = 0
KPG1 110743Z 30009KT 23/M09 A2994 RMK A01 T02321092  RH  011%=      5-min Rain = 0
KPG1 110744Z 31009KT 23/M09 A2994 RMK A01 T02331092  RH  011%=      5-min Rain = 0
KPG1 110745Z 31008KT 23/M09 A2994 RMK A01 T02331092  RH  011%=      5-min Rain = 0
KPG1 110746Z 31009KT 23/M09 A2994 RMK A01 T02331092  RH  011%=      5-min Rain = 0
KPG1 110747Z 31009KT 23/M09 A2994 RMK A01 T02331092  RH  011%=      5-min Rain = 0
KPG1 110748Z 31010KT 23/M09 A2994 RMK A01 T02331091  RH  011%=      5-min Rain = 0
KPG1 110749Z 31009KT 24/M09 A2994 RMK A01 T02351091  RH  011%=      5-min Rain = 0
KPG1 110750Z 30010KT 24/M09 A2994 RMK A01 T02361090  RH  011%=      5-min Rain = 0
KPG1 110751Z 30010KT 24/M09 A2994 RMK A01 T02361090  RH  011%=      5-min Rain = 0
KPG1 110752Z 30010KT 24/M09 A2994 RMK A01 T02371089  RH  011%=      5-min Rain = 0
KPG1 110753Z 30006KT 24/M09 A2995 RMK A01 T02371090  RH  011%=      5-min Rain = 0
KPG1 110754Z 29006KT 24/M09 A2995 RMK A01 T02371090  RH  011%=      5-min Rain = 0
KPG1 110755Z 30007KT 24/M09 A2995 RMK A01 T02361090  RH  011%=      5-min Rain = 0
KPG1 110756Z 30008KT 24/M09 A2995 RMK A01 T02351090  RH  011%=      5-min Rain = 0
KPG1 110757Z 30009KT 24/M09 A2995 RMK A01 T02351091  RH  011%=      5-min Rain = 0
KPG1 110758Z 31009KT 24/M09 A2995 RMK A01 T02361091  RH  011%=      5-min Rain = 0
KPG1 110759Z 31010KT 24/M09 A2995 RMK A01 T02361091  RH  011%=      5-min Rain = 0
KPG1 110800Z 30007KT 24/M09 A2995 RMK A01 T02361090  RH  011%=      5-min Rain = 0
KPG1 110801Z 31006KT 24/M09 A2995 RMK A01 T02361091  RH  011%=      5-min Rain = 0
KPG1 110802Z 30006KT 24/M09 A2995 RMK A01 T02351090  RH  011%=      5-min Rain = 0
KPG1 110803Z 29004KT 24/M09 A2995 RMK A01 T02351090  RH  011%=      5-min Rain = 0
KPG1 110804Z 29004KT 23/M09 A2995 RMK A01 T02331090  RH  011%=      5-min Rain = 0
KPG1 110805Z 28004KT 23/M09 A2995 RMK A01 T02321089  RH  011%=      5-min Rain = 0
KPG1 110806Z 29004KT 23/M09 A2995 RMK A01 T02301090  RH  011%=      5-min Rain = 0
KPG1 110807Z 29003KT 23/M09 A2995 RMK A01 T02281090  RH  011%=      5-min Rain = 0
KPG1 110808Z 30003KT 23/M09 A2995 RMK A01 T02281090  RH  011%=      5-min Rain = 0
KPG1 110809Z 30004KT 23/M09 A2995 RMK A01 T02281090  RH  011%=      5-min Rain = 0
KPG1 110810Z 30003KT 23/M09 A2995 RMK A01 T02291089  RH  011%=      5-min Rain = 0
KPG1 110811Z 31003KT 23/M09 A2995 RMK A01 T02291088  RH  011%=      5-min Rain = 0
KPG1 110812Z 30004KT 23/M09 A2995 RMK A01 T02291088  RH  011%=      5-min Rain = 0
KPG1 110813Z 30007KT 23/M09 A2995 RMK A01 T02301088  RH  011%=      5-min Rain = 0
KPG1 110814Z 29005KT 23/M09 A2995 RMK A01 T02321087  RH  011%=      5-min Rain = 0
KPG1 110815Z 30004KT 23/M09 A2995 RMK A01 T02331087  RH  011%=      5-min Rain = 0
KPG1 110816Z 29003KT 23/M09 A2995 RMK A01 T02331087  RH  011%=      5-min Rain = 0
KPG1 110817Z 27002KT 23/M09 A2995 RMK A01 T02331087  RH  011%=      5-min Rain = 0
KPG1 110818Z 26002KT 23/M09 A2995 RMK A01 T02331087  RH  011%=      5-min Rain = 0
KPG1 110819Z 27003KT 23/M09 A2995 RMK A01 T02311088  RH  011%=      5-min Rain = 0
KPG1 110820Z 28004KT 23/M09 A2995 RMK A01 T02291088  RH  011%=      5-min Rain = 0
KPG1 110821Z 29003KT 23/M09 A2995 RMK A01 T02291087  RH  011%=      5-min Rain = 0
KPG1 110822Z 30003KT 23/M09 A2995 RMK A01 T02291086  RH  011%=      5-min Rain = 0
KPG1 110823Z 30002KT 23/M09 A2995 RMK A01 T02291087  RH  011%=      5-min Rain = 0
KPG1 110824Z 32001KT 23/M09 A2995 RMK A01 T02291087  RH  011%=      5-min Rain = 0
KPG1 110825Z 31003KT 23/M09 A2995 RMK A01 T02291087  RH  011%=      5-min Rain = 0
KPG1 110826Z 26002KT 23/M09 A2995 RMK A01 T02291087  RH  011%=      5-min Rain = 0
KPG1 110827Z 22004KT 23/M09 A2995 RMK A01 T02291085  RH  011%=      5-min Rain = 0
KPG1 110828Z 24005KT 23/M09 A2995 RMK A01 T02251086  RH  012%=      5-min Rain = 0
KPG1 110829Z 25005KT 22/M09 A2995 RMK A01 T02211087  RH  012%=      5-min Rain = 0
KPG1 110830Z 27004KT 22/M09 A2995 RMK A01 T02191088  RH  012%=      5-min Rain = 0
KPG1 110831Z 28003KT 22/M09 A2994 RMK A01 T02191088  RH  012%=      5-min Rain = 0
KPG1 110832Z 29001KT 22/M09 A2994 RMK A01 T02191087  RH  012%=      5-min Rain = 0
KPG1 110833Z 29002KT 22/M09 A2994 RMK A01 T02171087  RH  012%=      5-min Rain = 0
KPG1 110834Z 29003KT 21/M09 A2994 RMK A01 T02141088  RH  012%=      5-min Rain = 0
KPG1 110835Z 29004KT 21/M09 A2994 RMK A01 T02121088  RH  013%=      5-min Rain = 0
KPG1 110836Z 31004KT 21/M09 A2994 RMK A01 T02111086  RH  013%=      5-min Rain = 0
KPG1 110837Z 32004KT 21/M08 A2994 RMK A01 T02131083  RH  013%=      5-min Rain = 0
KPG1 110838Z 33003KT 22/M08 A2994 RMK A01 T02191080  RH  013%=      5-min Rain = 0
KPG1 110839Z 33005KT 22/M08 A2994 RMK A01 T02231078  RH  013%=      5-min Rain = 0
KPG1 110840Z 33006KT 23/M08 A2994 RMK A01 T02271075  RH  013%=      5-min Rain = 0
KPG1 110841Z 32006KT 23/M07 A2994 RMK A01 T02321072  RH  013%=      5-min Rain = 0
KPG1 110842Z 34003KT 24/M07 A2994 RMK A01 T02361074  RH  012%=      5-min Rain = 0
KPG1 110843Z 33002KT 23/M08 A2994 RMK A01 T02321082  RH  012%=      5-min Rain = 0
KPG1 110844Z 31005KT 23/M08 A2994 RMK A01 T02271081  RH  012%=      5-min Rain = 0
KPG1 110845Z 31006KT 23/M07 A2994 RMK A01 T02291071  RH  013%=      5-min Rain = 0
KPG1 110846Z 31006KT 23/M07 A2994 RMK A01 T02341068  RH  013%=      5-min Rain = 0
KPG1 110847Z 30006KT 24/M07 A2994 RMK A01 T02381067  RH  013%=      5-min Rain = 0
KPG1 110848Z 30006KT 24/M07 A2994 RMK A01 T02391068  RH  012%=      5-min Rain = 0
KPG1 110849Z 32005KT 24/M07 A2994 RMK A01 T02401068  RH  012%=      5-min Rain = 0
KPG1 110850Z 33004KT 24/M07 A2994 RMK A01 T02411067  RH  012%=      5-min Rain = 0
KPG1 110851Z 31003KT 24/M07 A2994 RMK A01 T02411067  RH  012%=      5-min Rain = 0
KPG1 110852Z 31005KT 24/M07 A2994 RMK A01 T02401067  RH  012%=      5-min Rain = 0
KPG1 110853Z 32005KT 24/M06 A2994 RMK A01 T02401062  RH  013%=      5-min Rain = 0
KPG1 110854Z 29003KT 24/M06 A2994 RMK A01 T02411060  RH  013%=      5-min Rain = 0
KPG1 110855Z 26001KT 24/M07 A2994 RMK A01 T02411069  RH  012%=      5-min Rain = 0
KPG1 110856Z 19002KT 23/M08 A2994 RMK A01 T02321082  RH  012%=      5-min Rain = 0
KPG1 110857Z 21002KT 22/M09 A2994 RMK A01 T02211085  RH  012%=      5-min Rain = 0
KPG1 110858Z 17004KT 21/M09 A2994 RMK A01 T02131087  RH  013%=      5-min Rain = 0
KPG1 110859Z 18006KT 21/M09 A2994 RMK A01 T02071086  RH  013%=      5-min Rain = 0
KPG1 110900Z 18005KT 20/M09 A2994 RMK A01 T02031086  RH  013%=      5-min Rain = 0
KPG1 110901Z 19004KT 20/M09 A2994 RMK A01 T02001086  RH  014%=      5-min Rain = 0
KPG1 110902Z 19004KT 20/M09 A2995 RMK A01 T01991085  RH  014%=      5-min Rain = 0
KPG1 110903Z 17004KT 20/M09 A2994 RMK A01 T01981086  RH  014%=      5-min Rain = 0
KPG1 110904Z 16005KT 20/M09 A2994 RMK A01 T01971087  RH  014%=      5-min Rain = 0
KPG1 110905Z 16005KT 20/M09 A2994 RMK A01 T01961086  RH  014%=      5-min Rain = 0
KPG1 110906Z 17003KT 20/M09 A2994 RMK A01 T01951087  RH  014%=      5-min Rain = 0
KPG1 110907Z 17003KT 20/M09 A2994 RMK A01 T01951087  RH  014%=      5-min Rain = 0
KPG1 110908Z 18002KT 20/M09 A2994 RMK A01 T01961086  RH  014%=      5-min Rain = 0
KPG1 110909Z 18003KT 20/M09 A2994 RMK A01 T01971086  RH  014%=      5-min Rain = 0
KPG1 110910Z 17004KT 20/M09 A2994 RMK A01 T01961087  RH  014%=      5-min Rain = 0
KPG1 110911Z 18004KT 20/M09 A2994 RMK A01 T01971086  RH  014%=      5-min Rain = 0
KPG1 110912Z 17003KT 20/M09 A2994 RMK A01 T01981087  RH  014%=      5-min Rain = 0
KPG1 110913Z 17003KT 20/M09 A2994 RMK A01 T02001087  RH  014%=      5-min Rain = 0
KPG1 110914Z 20003KT 20/M09 A2994 RMK A01 T02011087  RH  013%=      5-min Rain = 0
KPG1 110915Z 18003KT 20/M09 A2994 RMK A01 T02011088  RH  013%=      5-min Rain = 0
KPG1 110916Z 18002KT 20/M09 A2994 RMK A01 T02011087  RH  014%=      5-min Rain = 0
KPG1 110917Z 19002KT 20/M09 A2994 RMK A01 T02011087  RH  014%=      5-min Rain = 0
KPG1 110918Z 25002KT 20/M09 A2994 RMK A01 T02001087  RH  014%=      5-min Rain = 0
KPG1 110919Z 22002KT 20/M09 A2994 RMK A01 T02001086  RH  014%=      5-min Rain = 0
KPG1 110920Z 23002KT 20/M09 A2994 RMK A01 T02001085  RH  014%=      5-min Rain = 0
KPG1 110921Z 24003KT 20/M09 A2994 RMK A01 T01991085  RH  014%=      5-min Rain = 0
KPG1 110922Z 24003KT 20/M08 A2994 RMK A01 T01981084  RH  014%=      5-min Rain = 0
KPG1 110923Z 24004KT 20/M09 A2994 RMK A01 T01981085  RH  014%=      5-min Rain = 0
KPG1 110924Z 24003KT 20/M09 A2994 RMK A01 T01971086  RH  014%=      5-min Rain = 0
KPG1 110925Z 27002KT 20/M09 A2994 RMK A01 T01961086  RH  014%=      5-min Rain = 0
KPG1 110926Z 23002KT 20/M09 A2994 RMK A01 T01951088  RH  014%=      5-min Rain = 0
KPG1 110927Z 22002KT 20/M09 A2994 RMK A01 T01951089  RH  014%=      5-min Rain = 0
KPG1 110928Z 23002KT 20/M09 A2994 RMK A01 T01951089  RH  014%=      5-min Rain = 0
KPG1 110929Z 28002KT 20/M09 A2994 RMK A01 T01961087  RH  014%=      5-min Rain = 0
KPG1 110930Z 25002KT 20/M09 A2994 RMK A01 T01961087  RH  014%=      5-min Rain = 0
KPG1 110931Z 22001KT 20/M09 A2994 RMK A01 T01961087  RH  014%=      5-min Rain = 0
KPG1 110932Z 27002KT 20/M09 A2994 RMK A01 T01971086  RH  014%=      5-min Rain = 0
KPG1 110933Z 26004KT 20/M09 A2994 RMK A01 T01971086  RH  014%=      5-min Rain = 0
KPG1 110934Z 26005KT 20/M08 A2994 RMK A01 T01981084  RH  014%=      5-min Rain = 0
KPG1 110935Z 28003KT 20/M08 A2994 RMK A01 T01991081  RH  014%=      5-min Rain = 0
KPG1 110936Z 29003KT 20/M08 A2994 RMK A01 T02011077  RH  015%=      5-min Rain = 0
KPG1 110937Z 29004KT 20/M08 A2994 RMK A01 T02041076  RH  014%=      5-min Rain = 0
KPG1 110938Z 30004KT 21/M07 A2994 RMK A01 T02071074  RH  014%=      5-min Rain = 0
KPG1 110939Z 31004KT 21/M07 A2994 RMK A01 T02101072  RH  014%=      5-min Rain = 0
KPG1 110940Z 31005KT 21/M07 A2995 RMK A01 T02131070  RH  014%=      5-min Rain = 0
KPG1 110941Z 30006KT 22/M07 A2995 RMK A01 T02151068  RH  014%=      5-min Rain = 0
KPG1 110942Z 30006KT 22/M07 A2995 RMK A01 T02181067  RH  014%=      5-min Rain = 0
KPG1 110943Z 31006KT 22/M07 A2995 RMK A01 T02201067  RH  014%=      5-min Rain = 0
KPG1 110944Z 31006KT 22/M07 A2995 RMK A01 T02211066  RH  014%=      5-min Rain = 0
KPG1 110945Z 30006KT 22/M06 A2995 RMK A01 T02231064  RH  014%=      5-min Rain = 0
KPG1 110946Z 30005KT 23/M06 A2995 RMK A01 T02251062  RH  014%=      5-min Rain = 0
KPG1 110947Z 31006KT 23/M06 A2995 RMK A01 T02261058  RH  014%=      5-min Rain = 0
KPG1 110948Z 30006KT 23/M06 A2995 RMK A01 T02261057  RH  015%=      5-min Rain = 0
KPG1 110949Z 30006KT 23/M06 A2995 RMK A01 T02261057  RH  015%=      5-min Rain = 0
KPG1 110950Z 30006KT 23/M06 A2995 RMK A01 T02261058  RH  014%=      5-min Rain = 0
KPG1 110951Z 30006KT 23/M06 A2995 RMK A01 T02261059  RH  014%=      5-min Rain = 0
KPG1 110952Z 30005KT 23/M06 A2996 RMK A01 T02261062  RH  014%=      5-min Rain = 0
KPG1 110953Z 30005KT 23/M06 A2996 RMK A01 T02261064  RH  014%=      5-min Rain = 0
KPG1 110954Z 31004KT 23/M07 A2995 RMK A01 T02261065  RH  014%=      5-min Rain = 0
KPG1 110955Z 31005KT 23/M06 A2995 RMK A01 T02261064  RH  014%=      5-min Rain = 0
KPG1 110956Z 30004KT 23/M07 A2996 RMK A01 T02261066  RH  014%=      5-min Rain = 0
KPG1 110957Z 30005KT 23/M07 A2996 RMK A01 T02261068  RH  013%=      5-min Rain = 0
KPG1 110958Z 30004KT 23/M07 A2996 RMK A01 T02261069  RH  013%=      5-min Rain = 0
KPG1 110959Z 31004KT 23/M07 A2996 RMK A01 T02251070  RH  013%=      5-min Rain = 0
KPG1 111000Z 31005KT 22/M07 A2996 RMK A01 T02241070  RH  013%=      5-min Rain = 0
KPG1 111001Z 32005KT 22/M07 A2996 RMK A01 T02241069  RH  013%=      5-min Rain = 0
KPG1 111002Z 31004KT 22/M07 A2996 RMK A01 T02241068  RH  014%=      5-min Rain = 0
KPG1 111003Z 31006KT 22/M07 A2996 RMK A01 T02241065  RH  014%=      5-min Rain = 0
KPG1 111004Z 29005KT 22/M06 A2996 RMK A01 T02241064  RH  014%=      5-min Rain = 0
KPG1 111005Z 29005KT 22/M06 A2996 RMK A01 T02241064  RH  014%=      5-min Rain = 0
KPG1 111006Z 29005KT 22/M06 A2996 RMK A01 T02241064  RH  014%=      5-min Rain = 0
KPG1 111007Z 30006KT 22/M06 A2996 RMK A01 T02231063  RH  014%=      5-min Rain = 0
KPG1 111008Z 30006KT 22/M06 A2996 RMK A01 T02231064  RH  014%=      5-min Rain = 0
KPG1 111009Z 31006KT 22/M07 A2996 RMK A01 T02231065  RH  014%=      5-min Rain = 0
KPG1 111010Z 29004KT 22/M06 A2996 RMK A01 T02231064  RH  014%=      5-min Rain = 0
KPG1 111011Z 31005KT 22/M06 A2996 RMK A01 T02231064  RH  014%=      5-min Rain = 0
KPG1 111012Z 30007KT 22/M06 A2996 RMK A01 T02221063  RH  014%=      5-min Rain = 0
KPG1 111013Z 29006KT 22/M06 A2996 RMK A01 T02221062  RH  014%=      5-min Rain = 0
KPG1 111014Z 28006KT 22/M06 A2996 RMK A01 T02221062  RH  014%=      5-min Rain = 0
KPG1 111015Z 29005KT 22/M06 A2996 RMK A01 T02211060  RH  015%=      5-min Rain = 0
KPG1 111016Z 29003KT 22/M06 A2996 RMK A01 T02211058  RH  015%=      5-min Rain = 0
KPG1 111017Z 29005KT 22/M06 A2996 RMK A01 T02201058  RH  015%=      5-min Rain = 0
KPG1 111018Z 30005KT 22/M06 A2996 RMK A01 T02201056  RH  015%=      5-min Rain = 0
KPG1 111019Z 29006KT 22/M06 A2996 RMK A01 T02201055  RH  015%=      5-min Rain = 0
KPG1 111020Z 29005KT 22/M06 A2996 RMK A01 T02201055  RH  015%=      5-min Rain = 0
KPG1 111021Z 29006KT 22/M05 A2996 RMK A01 T02201054  RH  015%=      5-min Rain = 0
KPG1 111022Z 30005KT 22/M05 A2996 RMK A01 T02191054  RH  016%=      5-min Rain = 0
KPG1 111023Z 30005KT 22/M05 A2996 RMK A01 T02201054  RH  016%=      5-min Rain = 0
KPG1 111024Z 29005KT 22/M06 A2996 RMK A01 T02191055  RH  015%=      5-min Rain = 0
KPG1 111025Z 29005KT 22/M06 A2996 RMK A01 T02191055  RH  015%=      5-min Rain = 0
KPG1 111026Z 30006KT 22/M05 A2996 RMK A01 T02181053  RH  016%=      5-min Rain = 0
KPG1 111027Z 30006KT 22/M05 A2997 RMK A01 T02191051  RH  016%=      5-min Rain = 0
KPG1 111028Z 31005KT 22/M05 A2997 RMK A01 T02181051  RH  016%=      5-min Rain = 0
KPG1 111029Z 30006KT 22/M05 A2997 RMK A01 T02181050  RH  016%=      5-min Rain = 0
KPG1 111030Z 28006KT 22/M05 A2997 RMK A01 T02181049  RH  016%=      5-min Rain = 0
KPG1 111031Z 29005KT 22/M05 A2997 RMK A01 T02181049  RH  016%=      5-min Rain = 0
KPG1 111032Z 28005KT 22/M05 A2997 RMK A01 T02181049  RH  016%=      5-min Rain = 0
KPG1 111033Z 30006KT 22/M05 A2997 RMK A01 T02171048  RH  017%=      5-min Rain = 0
KPG1 111034Z 29006KT 22/M05 A2997 RMK A01 T02171045  RH  017%=      5-min Rain = 0
KPG1 111035Z 30006KT 22/M05 A2997 RMK A01 T02171045  RH  017%=      5-min Rain = 0
KPG1 111036Z 28007KT 22/M05 A2997 RMK A01 T02181045  RH  017%=      5-min Rain = 0
KPG1 111037Z 30005KT 22/M05 A2997 RMK A01 T02181045  RH  017%=      5-min Rain = 0
KPG1 111038Z 31007KT 22/M04 A2997 RMK A01 T02191044  RH  017%=      5-min Rain = 0
KPG1 111039Z 31006KT 22/M04 A2997 RMK A01 T02181042  RH  017%=      5-min Rain = 0
KPG1 111040Z 30009KT 22/M04 A2997 RMK A01 T02191040  RH  017%=      5-min Rain = 0
KPG1 111041Z 30008KT 22/M04 A2997 RMK A01 T02191037  RH  018%=      5-min Rain = 0
KPG1 111042Z 30007KT 22/M03 A2997 RMK A01 T02191034  RH  018%=      5-min Rain = 0
KPG1 111043Z 28005KT 22/M03 A2997 RMK A01 T02201033  RH  018%=      5-min Rain = 0
KPG1 111044Z 28007KT 22/M03 A2997 RMK A01 T02201031  RH  018%=      5-min Rain = 0
KPG1 111045Z 29006KT 22/M03 A2997 RMK A01 T02201029  RH  019%=      5-min Rain = 0
KPG1 111046Z 28007KT 22/M03 A2997 RMK A01 T02201029  RH  019%=      5-min Rain = 0
KPG1 111047Z 27006KT 22/M03 A2997 RMK A01 T02191029  RH  019%=      5-min Rain = 0
KPG1 111048Z 28006KT 22/M03 A2997 RMK A01 T02191029  RH  019%=      5-min Rain = 0
KPG1 111049Z 29006KT 22/M03 A2997 RMK A01 T02181029  RH  019%=      5-min Rain = 0
KPG1 111050Z 29006KT 22/M03 A2997 RMK A01 T02171027  RH  019%=      5-min Rain = 0
KPG1 111051Z 29006KT 22/M03 A2997 RMK A01 T02171026  RH  019%=      5-min Rain = 0
KPG1 111052Z 28005KT 22/M03 A2997 RMK A01 T02171025  RH  020%=      5-min Rain = 0
KPG1 111053Z 29005KT 22/M03 A2997 RMK A01 T02161025  RH  020%=      5-min Rain = 0
KPG1 111054Z 29004KT 22/M02 A2997 RMK A01 T02161024  RH  020%=      5-min Rain = 0
KPG1 111055Z 30004KT 22/M02 A2997 RMK A01 T02161023  RH  020%=      5-min Rain = 0
KPG1 111056Z 30005KT 22/M02 A2997 RMK A01 T02161023  RH  020%=      5-min Rain = 0
KPG1 111057Z 29005KT 22/M02 A2998 RMK A01 T02161022  RH  020%=      5-min Rain = 0
KPG1 111058Z 28007KT 22/M02 A2998 RMK A01 T02151022  RH  020%=      5-min Rain = 0
KPG1 111059Z 29007KT 22/M02 A2998 RMK A01 T02151021  RH  020%=      5-min Rain = 0
KPG1 111100Z 29006KT 22/M02 A2998 RMK A01 T02151021  RH  020%=      5-min Rain = 0
KPG1 111101Z 29005KT 22/M02 A2998 RMK A01 T02151021  RH  020%=      5-min Rain = 0
KPG1 111102Z 28006KT 22/M02 A2998 RMK A01 T02151021  RH  021%=      5-min Rain = 0
KPG1 111103Z 29005KT 21/M02 A2998 RMK A01 T02141020  RH  021%=      5-min Rain = 0
KPG1 111104Z 28004KT 21/M02 A2998 RMK A01 T02141020  RH  021%=      5-min Rain = 0
KPG1 111105Z 29005KT 21/M02 A2998 RMK A01 T02131020  RH  021%=      5-min Rain = 0
KPG1 111106Z 28006KT 21/M02 A2998 RMK A01 T02131020  RH  021%=      5-min Rain = 0
KPG1 111107Z 29007KT 21/M02 A2998 RMK A01 T02131019  RH  021%=      5-min Rain = 0
KPG1 111108Z 29006KT 21/M02 A2998 RMK A01 T02131019  RH  021%=      5-min Rain = 0
KPG1 111109Z 29005KT 21/M02 A2998 RMK A01 T02131019  RH  021%=      5-min Rain = 0
KPG1 111110Z 28008KT 21/M02 A2998 RMK A01 T02131019  RH  021%=      5-min Rain = 0
KPG1 111111Z 30005KT 21/M02 A2998 RMK A01 T02131018  RH  021%=      5-min Rain = 0
KPG1 111112Z 29005KT 21/M02 A2998 RMK A01 T02121018  RH  021%=      5-min Rain = 0
KPG1 111113Z 29004KT 21/M02 A2998 RMK A01 T02131018  RH  021%=      5-min Rain = 0
KPG1 111114Z 28006KT 21/M02 A2999 RMK A01 T02121018  RH  021%=      5-min Rain = 0
KPG1 111115Z 28006KT 21/M02 A2999 RMK A01 T02121018  RH  021%=      5-min Rain = 0
KPG1 111116Z 28006KT 21/M02 A2999 RMK A01 T02111017  RH  022%=      5-min Rain = 0
KPG1 111117Z 28006KT 21/M02 A2999 RMK A01 T02101016  RH  022%=      5-min Rain = 0
KPG1 111118Z 28005KT 21/M02 A2999 RMK A01 T02101016  RH  022%=      5-min Rain = 0
KPG1 111119Z 29005KT 21/M02 A2999 RMK A01 T02091016  RH  022%=      5-min Rain = 0
KPG1 111120Z 28005KT 21/M02 A2999 RMK A01 T02081016  RH  022%=      5-min Rain = 0
KPG1 111121Z 29005KT 21/M02 A2999 RMK A01 T02081015  RH  022%=      5-min Rain = 0
KPG1 111122Z 28007KT 21/M02 A2999 RMK A01 T02081015  RH  022%=      5-min Rain = 0
KPG1 111123Z 28004KT 21/M01 A2999 RMK A01 T02081014  RH  022%=      5-min Rain = 0
KPG1 111124Z 28006KT 21/M01 A2999 RMK A01 T02081014  RH  023%=      5-min Rain = 0
KPG1 111125Z 29005KT 21/M01 A2999 RMK A01 T02081013  RH  023%=      5-min Rain = 0
KPG1 111126Z 27005KT 21/M01 A2999 RMK A01 T02081012  RH  023%=      5-min Rain = 0
KPG1 111127Z 28006KT 21/M01 A2999 RMK A01 T02071011  RH  023%=      5-min Rain = 0
KPG1 111128Z 29007KT 21/M01 A2999 RMK A01 T02061010  RH  023%=      5-min Rain = 0
KPG1 111129Z 28005KT 21/M01 A2999 RMK A01 T02061009  RH  024%=      5-min Rain = 0
KPG1 111130Z 29005KT 21/M01 A2999 RMK A01 T02061008  RH  024%=      5-min Rain = 0
KPG1 111131Z 29005KT 21/M01 A30 RMK A01 T02061008  RH  024%=      5-min Rain = 0
KPG1 111132Z 29006KT 21/M01 A30 RMK A01 T02061007  RH  024%=      5-min Rain = 0
KPG1 111133Z 31004KT 21/M01 A30 RMK A01 T02061007  RH  024%=      5-min Rain = 0
KPG1 111134Z 28005KT 21/M01 A30 RMK A01 T02061006  RH  024%=      5-min Rain = 0
KPG1 111135Z 29007KT 21/M00 A30 RMK A01 T02061004  RH  024%=      5-min Rain = 0
KPG1 111136Z 29007KT 21/M00 A30 RMK A01 T02061002  RH  025%=      5-min Rain = 0
KPG1 111137Z 29006KT 21/M00 A30 RMK A01 T02071001  RH  025%=      5-min Rain = 0
KPG1 111138Z 29005KT 21/M00 A30 RMK A01 T02081001  RH  025%=      5-min Rain = 0
KPG1 111139Z 29005KT 21/M00 A30 RMK A01 T02081001  RH  025%=      5-min Rain = 0
KPG1 111140Z 30006KT 21/00 A30 RMK A01 T02080000  RH  025%=      5-min Rain = 0
KPG1 111141Z 30004KT 21/00 A30 RMK A01 T02080002  RH  025%=      5-min Rain = 0
KPG1 111142Z 29007KT 21/00 A30 RMK A01 T02090003  RH  025%=      5-min Rain = 0
KPG1 111143Z 28007KT 21/01 A30 RMK A01 T02090005  RH  026%=      5-min Rain = 0
KPG1 111144Z 29007KT 21/01 A3001 RMK A01 T02100006  RH  026%=      5-min Rain = 0
KPG1 111145Z 30007KT 21/01 A3001 RMK A01 T02100006  RH  026%=      5-min Rain = 0
KPG1 111146Z 29006KT 21/01 A3001 RMK A01 T02100007  RH  026%=      5-min Rain = 0
KPG1 111147Z 30005KT 21/01 A3001 RMK A01 T02100007  RH  026%=      5-min Rain = 0
KPG1 111148Z 30004KT 21/01 A3001 RMK A01 T02100007  RH  026%=      5-min Rain = 0
KPG1 111149Z 29005KT 21/01 A3001 RMK A01 T02100008  RH  026%=      5-min Rain = 0
KPG1 111150Z 29006KT 21/01 A3001 RMK A01 T02100008  RH  026%=      5-min Rain = 0
KPG1 111151Z 28007KT 21/01 A3001 RMK A01 T02100009  RH  026%=      5-min Rain = 0
KPG1 111152Z 28009KT 21/01 A3001 RMK A01 T02100009  RH  026%=      5-min Rain = 0
KPG1 111153Z 28009KT 21/01 A3001 RMK A01 T02100009  RH  026%=      5-min Rain = 0
KPG1 111154Z 28008KT 21/01 A3001 RMK A01 T02100009  RH  026%=      5-min Rain = 0
KPG1 111155Z 28009KT 21/01 A3001 RMK A01 T02100009  RH  026%=      5-min Rain = 0
KPG1 111156Z 28008KT 21/01 A3001 RMK A01 T02100009  RH  026%=      5-min Rain = 0
KPG1 111157Z 28008KT 21/01 A3001 RMK A01 T02100009  RH  026%=      5-min Rain = 0
KPG1 111158Z 28007KT 21/01 A3001 RMK A01 T02100009  RH  026%=      5-min Rain = 0
KPG1 111159Z 28008KT 21/01 A3002 RMK A01 T02100008  RH  026%=      5-min Rain = 0
KPG1 111200Z 28009KT 21/01 A3002 RMK A01 T02090008  RH  026%=      5-min Rain = 0
KPG1 111201Z 28008KT 21/01 A3002 RMK A01 T02090008  RH  026%=      5-min Rain = 0
KPG1 111202Z 28007KT 21/01 A3002 RMK A01 T02090008  RH  026%=      5-min Rain = 0
KPG1 111203Z 28007KT 21/01 A3002 RMK A01 T02080009  RH  026%=      5-min Rain = 0
KPG1 111204Z 28010KT 21/01 A3002 RMK A01 T02080010  RH  027%=      5-min Rain = 0
KPG1 111205Z 29008KT 21/01 A3002 RMK A01 T02080011  RH  027%=      5-min Rain = 0
KPG1 111206Z 28008KT 21/01 A3002 RMK A01 T02080012  RH  027%=      5-min Rain = 0
KPG1 111207Z 29007KT 21/01 A3002 RMK A01 T02090012  RH  027%=      5-min Rain = 0
KPG1 111208Z 28008KT 21/01 A3002 RMK A01 T02080012  RH  027%=      5-min Rain = 0
KPG1 111209Z 28009KT 21/01 A3002 RMK A01 T02080013  RH  027%=      5-min Rain = 0
KPG1 111210Z 27008KT 21/01 A3002 RMK A01 T02080012  RH  027%=      5-min Rain = 0
KPG1 111211Z 27008KT 21/01 A3002 RMK A01 T02070012  RH  027%=      5-min Rain = 0
KPG1 111212Z 27007KT 21/01 A3002 RMK A01 T02060012  RH  027%=      5-min Rain = 0
KPG1 111213Z 27006KT 21/01 A3002 RMK A01 T02060012  RH  028%=      5-min Rain = 0
KPG1 111214Z 28007KT 21/01 A3002 RMK A01 T02050013  RH  028%=      5-min Rain = 0
KPG1 111215Z 27007KT 21/01 A3002 RMK A01 T02050014  RH  028%=      5-min Rain = 0
KPG1 111216Z 27009KT 20/01 A3002 RMK A01 T02040014  RH  028%=      5-min Rain = 0
KPG1 111217Z 26007KT 20/01 A3002 RMK A01 T02030014  RH  028%=      5-min Rain = 0
KPG1 111218Z 26006KT 20/02 A3003 RMK A01 T02030015  RH  029%=      5-min Rain = 0
KPG1 111219Z 26006KT 20/02 A3003 RMK A01 T02030015  RH  029%=      5-min Rain = 0
KPG1 111220Z 26007KT 20/02 A3003 RMK A01 T02020015  RH  029%=      5-min Rain = 0
KPG1 111221Z 26007KT 20/02 A3003 RMK A01 T02010016  RH  029%=      5-min Rain = 0
KPG1 111222Z 26007KT 20/02 A3003 RMK A01 T02010016  RH  029%=      5-min Rain = 0
KPG1 111223Z 25006KT 20/02 A3003 RMK A01 T02010017  RH  029%=      5-min Rain = 0
KPG1 111224Z 26005KT 20/02 A3003 RMK A01 T02000017  RH  029%=      5-min Rain = 0
KPG1 111225Z 26005KT 20/02 A3003 RMK A01 T02000017  RH  030%=      5-min Rain = 0
KPG1 111226Z 24006KT 20/02 A3003 RMK A01 T02000017  RH  030%=      5-min Rain = 0
KPG1 111227Z 24005KT 20/02 A3003 RMK A01 T01990017  RH  030%=      5-min Rain = 0
KPG1 111228Z 24005KT 20/02 A3003 RMK A01 T01990017  RH  030%=      5-min Rain = 0
KPG1 111229Z 24007KT 20/02 A3003 RMK A01 T01990017  RH  030%=      5-min Rain = 0
KPG1 111230Z 26007KT 20/02 A3003 RMK A01 T02000017  RH  030%=      5-min Rain = 0
KPG1 111231Z 25009KT 20/02 A3003 RMK A01 T02000016  RH  029%=      5-min Rain = 0
KPG1 111232Z 26012G17KT 20/02 A3003 RMK A01 T02020016  RH  029%=      5-min Rain = 0
KPG1 111233Z 26011KT 20/02 A3003 RMK A01 T02030016  RH  029%=      5-min Rain = 0
KPG1 111234Z 26012G17KT 20/02 A3003 RMK A01 T02040016  RH  029%=      5-min Rain = 0
KPG1 111235Z 25012G18KT 20/02 A3004 RMK A01 T02040015  RH  028%=      5-min Rain = 0
KPG1 111236Z 26012G18KT 20/01 A3004 RMK A01 T02040014  RH  028%=      5-min Rain = 0
KPG1 111237Z 25009KT 20/01 A3004 RMK A01 T02040014  RH  028%=      5-min Rain = 0
KPG1 111238Z 26012KT 20/01 A3003 RMK A01 T02040014  RH  028%=      5-min Rain = 0
KPG1 111239Z 26010KT 20/01 A3003 RMK A01 T02040014  RH  028%=      5-min Rain = 0
KPG1 111240Z 26011KT 20/01 A3003 RMK A01 T02040013  RH  028%=      5-min Rain = 0
KPG1 111241Z 26009KT 20/01 A3004 RMK A01 T02040013  RH  028%=      5-min Rain = 0
KPG1 111242Z 26011KT 20/01 A3004 RMK A01 T02040014  RH  028%=      5-min Rain = 0
KPG1 111243Z 26012KT 20/01 A3004 RMK A01 T02030013  RH  028%=      5-min Rain = 0
KPG1 111244Z 26009KT 20/01 A3004 RMK A01 T02030014  RH  028%=      5-min Rain = 0
KPG1 111245Z 25008KT 20/01 A3004 RMK A01 T02030013  RH  028%=      5-min Rain = 0
KPG1 111246Z 25010KT 20/01 A3004 RMK A01 T02030013  RH  028%=      5-min Rain = 0
KPG1 111247Z 26008KT 20/01 A3004 RMK A01 T02020013  RH  028%=      5-min Rain = 0
KPG1 111248Z 26007KT 20/01 A3004 RMK A01 T02020013  RH  028%=      5-min Rain = 0
KPG1 111249Z 25006KT 20/01 A3004 RMK A01 T02020013  RH  028%=      5-min Rain = 0
KPG1 111250Z 26009KT 20/01 A3004 RMK A01 T02020013  RH  028%=      5-min Rain = 0
KPG1 111251Z 26010KT 20/01 A3004 RMK A01 T02010013  RH  028%=      5-min Rain = 0
KPG1 111252Z 26008KT 20/01 A3004 RMK A01 T02010013  RH  029%=      5-min Rain = 0
KPG1 111253Z 26006KT 20/01 A3004 RMK A01 T02010013  RH  029%=      5-min Rain = 0
KPG1 111254Z 26008KT 20/01 A3004 RMK A01 T02010013  RH  029%=      5-min Rain = 0
KPG1 111255Z 27009KT 20/01 A3005 RMK A01 T02010014  RH  029%=      5-min Rain = 0
KPG1 111256Z 28008KT 20/02 A3005 RMK A01 T02010015  RH  029%=      5-min Rain = 0
KPG1 111257Z 26007KT 20/02 A3005 RMK A01 T02010015  RH  029%=      5-min Rain = 0
KPG1 111258Z 27007KT 20/02 A3005 RMK A01 T02010015  RH  029%=      5-min Rain = 0
KPG1 111259Z 27006KT 20/02 A3005 RMK A01 T02000015  RH  029%=      5-min Rain = 0
KPG1 111300Z 27008KT 20/02 A3005 RMK A01 T02000016  RH  029%=      5-min Rain = 0
KPG1 111301Z 27010KT 20/02 A3005 RMK A01 T02000017  RH  029%=      5-min Rain = 0
KPG1 111302Z 27009KT 20/02 A3005 RMK A01 T02000017  RH  030%=      5-min Rain = 0
KPG1 111303Z 26009KT 20/02 A3005 RMK A01 T02000018  RH  030%=      5-min Rain = 0
KPG1 111304Z 27010KT 20/02 A3005 RMK A01 T02000018  RH  030%=      5-min Rain = 0
KPG1 111305Z 28012KT 20/02 A3005 RMK A01 T02000019  RH  030%=      5-min Rain = 0
KPG1 111306Z 27016KT 20/02 A3005 RMK A01 T02000020  RH  030%=      5-min Rain = 0
KPG1 111307Z 27014KT 20/02 A3005 RMK A01 T02000020  RH  030%=      5-min Rain = 0
KPG1 111308Z 28013KT 20/02 A3005 RMK A01 T02000020  RH  030%=      5-min Rain = 0
KPG1 111309Z 27012KT 20/02 A3006 RMK A01 T02000020  RH  030%=      5-min Rain = 0
KPG1 111310Z 26008KT 20/02 A3006 RMK A01 T02000021  RH  030%=      5-min Rain = 0
KPG1 111311Z 27011KT 20/02 A3006 RMK A01 T01990021  RH  031%=      5-min Rain = 0
KPG1 111312Z 27010KT 20/02 A3006 RMK A01 T01980022  RH  031%=      5-min Rain = 0
KPG1 111313Z 27010KT 20/02 A3006 RMK A01 T01970022  RH  031%=      5-min Rain = 0
KPG1 111314Z 27011KT 20/02 A3006 RMK A01 T01970023  RH  031%=      5-min Rain = 0
KPG1 111315Z 28011G16KT 20/02 A3006 RMK A01 T01970023  RH  032%=      5-min Rain = 0
KPG1 111316Z 27009G14KT 20/02 A3006 RMK A01 T01960023  RH  032%=      5-min Rain = 0
KPG1 111317Z 27009KT 20/02 A3006 RMK A01 T01960024  RH  032%=      5-min Rain = 0
KPG1 111318Z 27011KT 20/02 A3006 RMK A01 T01960024  RH  032%=      5-min Rain = 0
KPG1 111319Z 27010KT 20/03 A3006 RMK A01 T01950025  RH  032%=      5-min Rain = 0
KPG1 111320Z 28010KT 20/03 A3006 RMK A01 T01950025  RH  032%=      5-min Rain = 0
KPG1 111321Z 28009KT 20/03 A3006 RMK A01 T01950025  RH  032%=      5-min Rain = 0
KPG1 111322Z 27009KT 19/03 A3006 RMK A01 T01940025  RH  032%=      5-min Rain = 0
KPG1 111323Z 27009KT 19/03 A3006 RMK A01 T01940025  RH  033%=      5-min Rain = 0
KPG1 111324Z 27008KT 19/03 A3006 RMK A01 T01940025  RH  033%=      5-min Rain = 0
KPG1 111325Z 27008KT 19/03 A3006 RMK A01 T01940026  RH  033%=      5-min Rain = 0
KPG1 111326Z 26006KT 19/03 A3006 RMK A01 T01940026  RH  033%=      5-min Rain = 0
KPG1 111327Z 26007KT 19/03 A3006 RMK A01 T01930026  RH  033%=      5-min Rain = 0
KPG1 111328Z 26008KT 19/03 A3006 RMK A01 T01930026  RH  033%=      5-min Rain = 0
KPG1 111329Z 27011KT 19/03 A3006 RMK A01 T01930027  RH  033%=      5-min Rain = 0
KPG1 111330Z 26008KT 19/03 A3006 RMK A01 T01920027  RH  033%=      5-min Rain = 0
KPG1 111331Z 28010G15KT 19/03 A3006 RMK A01 T01930027  RH  033%=      5-min Rain = 0
KPG1 111332Z 27008KT 19/03 A3006 RMK A01 T01920027  RH  033%=      5-min Rain = 0
KPG1 111333Z 27009KT 19/03 A3006 RMK A01 T01930027  RH  033%=      5-min Rain = 0
KPG1 111334Z 27006KT 19/03 A3006 RMK A01 T01920027  RH  033%=      5-min Rain = 0
KPG1 111335Z 27006KT 19/03 A3006 RMK A01 T01930027  RH  033%=      5-min Rain = 0
KPG1 111336Z 27007KT 19/03 A3006 RMK A01 T01920027  RH  033%=      5-min Rain = 0
KPG1 111337Z 26009KT 19/03 A3006 RMK A01 T01930028  RH  033%=      5-min Rain = 0
KPG1 111338Z 28007KT 19/03 A3007 RMK A01 T01930028  RH  034%=      5-min Rain = 0
KPG1 111339Z 29009KT 19/03 A3007 RMK A01 T01920028  RH  033%=      5-min Rain = 0
KPG1 111340Z 29010KT 19/03 A3007 RMK A01 T01920027  RH  033%=      5-min Rain = 0
KPG1 111341Z 30009KT 19/03 A3007 RMK A01 T01930027  RH  033%=      5-min Rain = 0
KPG1 111342Z 32009KT 19/03 A3007 RMK A01 T01940026  RH  033%=      5-min Rain = 0
KPG1 111343Z 32009KT 19/03 A3007 RMK A01 T01940026  RH  033%=      5-min Rain = 0
KPG1 111344Z 31008KT 20/03 A3007 RMK A01 T01950026  RH  033%=      5-min Rain = 0
KPG1 111345Z 31008KT 19/03 A3007 RMK A01 T01940026  RH  033%=      5-min Rain = 0
KPG1 111346Z 31008G13KT 19/03 A3007 RMK A01 T01940027  RH  033%=      5-min Rain = 0
KPG1 111347Z 31014G20KT 19/02 A3007 RMK A01 T01940024  RH  032%=      5-min Rain = 0
KPG1 111348Z 32015KT 20/02 A3008 RMK A01 T01950020  RH  031%=      5-min Rain = 0
KPG1 111349Z 31016G22KT 20/02 A3007 RMK A01 T01960016  RH  030%=      5-min Rain = 0
KPG1 111350Z 33012G19KT 20/01 A3008 RMK A01 T01960011  RH  029%=      5-min Rain = 0
KPG1 111351Z 33010KT 20/01 A3008 RMK A01 T01960009  RH  029%=      5-min Rain = 0
KPG1 111352Z 33010G16KT 20/01 A3008 RMK A01 T01960006  RH  028%=      5-min Rain = 0
KPG1 111353Z 34015G21KT 20/M00 A3008 RMK A01 T01961002  RH  026%=      5-min Rain = 0
KPG1 111354Z 32016KT 20/M01 A3008 RMK A01 T01951011  RH  025%=      5-min Rain = 0
KPG1 111355Z 33015G21KT 19/M01 A3009 RMK A01 T01941014  RH  024%=      5-min Rain = 0
KPG1 111356Z 32013KT 19/M02 A3009 RMK A01 T01941019  RH  024%=      5-min Rain = 0
KPG1 111357Z 34012KT 19/M02 A3009 RMK A01 T01921023  RH  023%=      5-min Rain = 0
KPG1 111358Z 34014KT 19/M03 A3009 RMK A01 T01921025  RH  023%=      5-min Rain = 0
KPG1 111359Z 34022KT 19/M03 A3009 RMK A01 T01911029  RH  022%=      5-min Rain = 0
KPG1 111400Z 34018G23KT 19/M03 A3009 RMK A01 T01891032  RH  022%=      5-min Rain = 0
KPG1 111401Z 34018G25KT 19/M03 A3009 RMK A01 T01871032  RH  022%=      5-min Rain = 0
KPG1 111402Z 34018KT 19/M03 A3009 RMK A01 T01871032  RH  023%=      5-min Rain = 0
KPG1 111403Z 34022G29KT 19/M03 A3009 RMK A01 T01851031  RH  023%=      5-min Rain = 0
KPG1 111404Z 34020G26KT 18/M03 A3009 RMK A01 T01841029  RH  023%=      5-min Rain = 0
KPG1 111405Z 34020G25KT 18/M03 A3009 RMK A01 T01831027  RH  024%=      5-min Rain = 0
KPG1 111406Z 34021G26KT 18/M02 A301 RMK A01 T01821023  RH  025%=      5-min Rain = 0
KPG1 111407Z 35020KT 18/M02 A301 RMK A01 T01811019  RH  026%=      5-min Rain = 0
KPG1 111408Z 34018G24KT 18/M02 A301 RMK A01 T01801018  RH  026%=      5-min Rain = 0
KPG1 111409Z 34019G30KT 18/M02 A301 RMK A01 T01791016  RH  027%=      5-min Rain = 0
KPG1 111410Z 33019KT 18/M01 A301 RMK A01 T01781013  RH  027%=      5-min Rain = 0
KPG1 111411Z 34018G24KT 18/M01 A301 RMK A01 T01771012  RH  028%=      5-min Rain = 0
KPG1 111412Z 34022G27KT 18/M01 A301 RMK A01 T01761009  RH  028%=      5-min Rain = 0
KPG1 111413Z 34020G28KT 18/M01 A301 RMK A01 T01751008  RH  029%=      5-min Rain = 0
KPG1 111414Z 34021KT 18/M01 A301 RMK A01 T01751007  RH  029%=      5-min Rain = 0
KPG1 111415Z 33019G27KT 17/M01 A301 RMK A01 T01741006  RH  029%=      5-min Rain = 0
KPG1 111416Z 34023KT 17/M01 A3009 RMK A01 T01731006  RH  030%=      5-min Rain = 0
KPG1 111417Z 34022G29KT 17/M01 A3009 RMK A01 T01731006  RH  030%=      5-min Rain = 0
KPG1 111418Z 34020G27KT 17/M01 A301 RMK A01 T01721007  RH  030%=      5-min Rain = 0
KPG1 111419Z 34022G29KT 17/M01 A301 RMK A01 T01731007  RH  030%=      5-min Rain = 0
KPG1 111420Z 35024G29KT 17/M01 A301 RMK A01 T01721008  RH  029%=      5-min Rain = 0
KPG1 111421Z 34023G28KT 17/M01 A301 RMK A01 T01721008  RH  030%=      5-min Rain = 0
KPG1 111422Z 34022G29KT 17/M01 A301 RMK A01 T01711008  RH  029%=      5-min Rain = 0
KPG1 111423Z 35024KT 17/M01 A301 RMK A01 T01711008  RH  029%=      5-min Rain = 0
KPG1 111424Z 35022G32KT 17/M01 A301 RMK A01 T01711010  RH  029%=      5-min Rain = 0
KPG1 111425Z 35024G30KT 17/M01 A301 RMK A01 T01711011  RH  029%=      5-min Rain = 0
KPG1 111426Z 35017KT 17/M01 A301 RMK A01 T01711011  RH  029%=      5-min Rain = 0
KPG1 111427Z 35025G31KT 17/M01 A301 RMK A01 T01711012  RH  029%=      5-min Rain = 0
KPG1 111428Z 35024KT 17/M01 A301 RMK A01 T01701013  RH  029%=      5-min Rain = 0
KPG1 111429Z 36023KT 17/M02 A301 RMK A01 T01701015  RH  028%=      5-min Rain = 0
KPG1 111430Z 34021KT 17/M02 A301 RMK A01 T01701022  RH  027%=      5-min Rain = 0
KPG1 111431Z 35016G21KT 17/M03 A301 RMK A01 T01701025  RH  026%=      5-min Rain = 0
KPG1 111432Z 35021G29KT 17/M03 A301 RMK A01 T01701030  RH  025%=      5-min Rain = 0
KPG1 111433Z 35025KT 17/M03 A301 RMK A01 T01681033  RH  025%=      5-min Rain = 0
KPG1 111434Z 35022G28KT 17/M03 A301 RMK A01 T01671033  RH  025%=      5-min Rain = 0
KPG1 111435Z 35022KT 17/M03 A301 RMK A01 T01671033  RH  025%=      5-min Rain = 0
KPG1 111436Z 35018G27KT 17/M03 A301 RMK A01 T01661033  RH  025%=      5-min Rain = 0
KPG1 111437Z 35024G29KT 17/M03 A301 RMK A01 T01661033  RH  025%=      5-min Rain = 0
KPG1 111438Z 00022G29KT 17/M03 A301 RMK A01 T01661034  RH  025%=      5-min Rain = 0
KPG1 111439Z 36024KT 17/M03 A301 RMK A01 T01651034  RH  025%=      5-min Rain = 0
KPG1 111440Z 35021KT 17/M03 A3011 RMK A01 T01651034  RH  025%=      5-min Rain = 0
KPG1 111441Z 35018G25KT 17/M03 A3011 RMK A01 T01651034  RH  025%=      5-min Rain = 0
KPG1 111442Z 35019KT 16/M04 A3011 RMK A01 T01641035  RH  025%=      5-min Rain = 0
KPG1 111443Z 35021KT 17/M04 A3011 RMK A01 T01651035  RH  025%=      5-min Rain = 0
KPG1 111444Z 36021KT 16/M04 A3011 RMK A01 T01641035  RH  025%=      5-min Rain = 0
KPG1 111445Z 35019KT 16/M03 A3011 RMK A01 T01641034  RH  026%=      5-min Rain = 0
KPG1 111446Z 35017KT 17/M03 A3012 RMK A01 T01651032  RH  026%=      5-min Rain = 0
KPG1 111447Z 36019G25KT 17/M03 A3012 RMK A01 T01651031  RH  026%=      5-min Rain = 0
KPG1 111448Z 35024G30KT 17/M03 A3012 RMK A01 T01651029  RH  026%=      5-min Rain = 0
KPG1 111449Z 00026KT 16/M03 A3012 RMK A01 T01631027  RH  027%=      5-min Rain = 0
KPG1 111450Z 36024KT 16/M03 A3012 RMK A01 T01631026  RH  027%=      5-min Rain = 0
KPG1 111451Z 35025G30KT 16/M03 A3012 RMK A01 T01621026  RH  028%=      5-min Rain = 0
KPG1 111452Z 35025G30KT 16/M03 A3012 RMK A01 T01611025  RH  028%=      5-min Rain = 0
KPG1 111453Z 35022G27KT 16/M02 A3012 RMK A01 T01601024  RH  028%=      5-min Rain = 0
KPG1 111454Z 36023G28KT 16/M02 A3012 RMK A01 T01601023  RH  028%=      5-min Rain = 0
KPG1 111455Z 36024KT 16/M02 A3012 RMK A01 T01601023  RH  028%=      5-min Rain = 0
KPG1 111456Z 35022G28KT 16/M02 A3012 RMK A01 T01591022  RH  029%=      5-min Rain = 0
KPG1 111457Z 35024G29KT 16/M02 A3012 RMK A01 T01601021  RH  029%=      5-min Rain = 0
KPG1 111458Z 35023G30KT 16/M02 A3012 RMK A01 T01591021  RH  029%=      5-min Rain = 0
KPG1 111459Z 35026G32KT 16/M02 A3012 RMK A01 T01591020  RH  029%=      5-min Rain = 0
KPG1 111500Z 35024G29KT 16/M02 A3012 RMK A01 T01581019  RH  030%=      5-min Rain = 0
KPG1 111501Z 36025KT 16/M02 A3012 RMK A01 T01581018  RH  030%=      5-min Rain = 0
KPG1 111502Z 35024KT 16/M02 A3012 RMK A01 T01581018  RH  030%=      5-min Rain = 0
KPG1 111503Z 36027KT 16/M02 A3012 RMK A01 T01581017  RH  030%=      5-min Rain = 0
KPG1 111504Z 36026G31KT 16/M02 A3013 RMK A01 T01571016  RH  030%=      5-min Rain = 0
KPG1 111505Z 35023G28KT 16/M02 A3013 RMK A01 T01571015  RH  031%=      5-min Rain = 0
KPG1 111506Z 35027G32KT 16/M02 A3013 RMK A01 T01571015  RH  031%=      5-min Rain = 0
KPG1 111507Z 35026G32KT 16/M01 A3013 RMK A01 T01571014  RH  031%=      5-min Rain = 0
KPG1 111508Z 36025G30KT 16/M01 A3013 RMK A01 T01571014  RH  031%=      5-min Rain = 0
KPG1 111509Z 35023G28KT 16/M01 A3013 RMK A01 T01571014  RH  031%=      5-min Rain = 0
KPG1 111510Z 36024KT 16/M01 A3013 RMK A01 T01571013  RH  031%=      5-min Rain = 0
KPG1 111511Z 35026KT 16/M01 A3013 RMK A01 T01561013  RH  031%=      5-min Rain = 0
KPG1 111512Z 35027G32KT 16/M01 A3013 RMK A01 T01561013  RH  031%=      5-min Rain = 0
KPG1 111513Z 36024KT 16/M01 A3013 RMK A01 T01561013  RH  031%=      5-min Rain = 0
KPG1 111514Z 36024KT 16/M01 A3013 RMK A01 T01561014  RH  031%=      5-min Rain = 0
KPG1 111515Z 35025KT 16/M01 A3013 RMK A01 T01561013  RH  031%=      5-min Rain = 0
KPG1 111516Z 36023G29KT 16/M01 A3013 RMK A01 T01561012  RH  032%=      5-min Rain = 0
KPG1 111517Z 36024KT 16/M01 A3013 RMK A01 T01561012  RH  032%=      5-min Rain = 0
KPG1 111518Z 35025G30KT 16/M01 A3013 RMK A01 T01561012  RH  032%=      5-min Rain = 0
KPG1 111519Z 35026KT 16/M01 A3013 RMK A01 T01561012  RH  032%=      5-min Rain = 0
KPG1 111520Z 35026G32KT 16/M01 A3013 RMK A01 T01561012  RH  032%=      5-min Rain = 0
KPG1 111521Z 35027KT 16/M01 A3013 RMK A01 T01561013  RH  031%=      5-min Rain = 0
KPG1 111522Z 35024G30KT 16/M01 A3013 RMK A01 T01561013  RH  031%=      5-min Rain = 0
KPG1 111523Z 35021G28KT 16/M01 A3014 RMK A01 T01561013  RH  031%=      5-min Rain = 0
KPG1 111524Z 36022G28KT 16/M01 A3014 RMK A01 T01561014  RH  031%=      5-min Rain = 0
KPG1 111525Z 35025G30KT 16/M01 A3014 RMK A01 T01561014  RH  031%=      5-min Rain = 0
KPG1 111526Z 36022KT 16/M01 A3014 RMK A01 T01551014  RH  031%=      5-min Rain = 0
KPG1 111527Z 00020G25KT 16/M01 A3014 RMK A01 T01551014  RH  031%=      5-min Rain = 0
KPG1 111528Z 35026G31KT 16/M01 A3014 RMK A01 T01551014  RH  031%=      5-min Rain = 0
KPG1 111529Z 35022KT 16/M01 A3014 RMK A01 T01551014  RH  031%=      5-min Rain = 0
KPG1 111530Z 35023KT 16/M01 A3014 RMK A01 T01551014  RH  031%=      5-min Rain = 0
KPG1 111531Z 36024KT 16/M01 A3014 RMK A01 T01551013  RH  031%=      5-min Rain = 0
KPG1 111532Z 35026KT 16/M01 A3014 RMK A01 T01551013  RH  032%=      5-min Rain = 0
KPG1 111533Z 36023KT 16/M01 A3014 RMK A01 T01551013  RH  032%=      5-min Rain = 0
KPG1 111534Z 00022KT 15/M01 A3014 RMK A01 T01541013  RH  032%=      5-min Rain = 0
KPG1 111535Z 36020G25KT 15/M01 A3014 RMK A01 T01541014  RH  032%=      5-min Rain = 0
KPG1 111536Z 36021G26KT 16/M01 A3014 RMK A01 T01551013  RH  032%=      5-min Rain = 0
KPG1 111537Z 00020KT 16/M01 A3014 RMK A01 T01551014  RH  031%=      5-min Rain = 0
KPG1 111538Z 36016KT 16/M01 A3015 RMK A01 T01551014  RH  031%=      5-min Rain = 0
KPG1 111539Z 00020G26KT 16/M01 A3015 RMK A01 T01561013  RH  031%=      5-min Rain = 0
KPG1 111540Z 00020KT 16/M01 A3015 RMK A01 T01551013  RH  031%=      5-min Rain = 0
KPG1 111541Z 36022G29KT 16/M01 A3015 RMK A01 T01551013  RH  032%=      5-min Rain = 0
KPG1 111542Z 36026KT 16/M01 A3015 RMK A01 T01551013  RH  032%=      5-min Rain = 0
KPG1 111543Z 36021G26KT 15/M01 A3015 RMK A01 T01541014  RH  032%=      5-min Rain = 0
KPG1 111544Z 00023KT 15/M01 A3015 RMK A01 T01541014  RH  032%=      5-min Rain = 0
KPG1 111545Z 35023KT 15/M01 A3015 RMK A01 T01541014  RH  032%=      5-min Rain = 0
KPG1 111546Z 36024G31KT 15/M01 A3015 RMK A01 T01541013  RH  032%=      5-min Rain = 0
KPG1 111547Z 36021KT 15/M01 A3015 RMK A01 T01541014  RH  032%=      5-min Rain = 0
KPG1 111548Z 35021KT 15/M01 A3015 RMK A01 T01541014  RH  032%=      5-min Rain = 0
KPG1 111549Z 36023G29KT 15/M01 A3015 RMK A01 T01541014  RH  032%=      5-min Rain = 0
KPG1 111550Z 36024G30KT 15/M01 A3015 RMK A01 T01541013  RH  032%=      5-min Rain = 0
KPG1 111551Z 35021G26KT 15/M01 A3015 RMK A01 T01541014  RH  032%=      5-min Rain = 0
KPG1 111552Z 00018G25KT 15/M01 A3015 RMK A01 T01541014  RH  032%=      5-min Rain = 0
KPG1 111553Z 00022G27KT 15/M01 A3015 RMK A01 T01541014  RH  032%=      5-min Rain = 0
KPG1 111554Z 36023G29KT 15/M01 A3015 RMK A01 T01541013  RH  032%=      5-min Rain = 0
KPG1 111555Z 35025G30KT 15/M01 A3016 RMK A01 T01541013  RH  032%=      5-min Rain = 0
KPG1 111556Z 36022KT 15/M01 A3016 RMK A01 T01541013  RH  032%=      5-min Rain = 0
KPG1 111557Z 36023G28KT 15/M01 A3016 RMK A01 T01541013  RH  032%=      5-min Rain = 0
KPG1 111558Z 36024KT 15/M01 A3016 RMK A01 T01541013  RH  032%=      5-min Rain = 0
KPG1 111559Z 01021KT 15/M01 A3016 RMK A01 T01541013  RH  032%=      5-min Rain = 0
KPG1 111600Z 01019KT 15/M01 A3017 RMK A01 T01541013  RH  032%=      5-min Rain = 0
KPG1 111601Z 01024G29KT 15/M01 A3017 RMK A01 T01541013  RH  032%=      5-min Rain = 0
KPG1 111602Z 01020KT 15/M01 A3017 RMK A01 T01541013  RH  032%=      5-min Rain = 0
KPG1 111603Z 00019G25KT 15/M01 A3017 RMK A01 T01541012  RH  032%=      5-min Rain = 0
KPG1 111604Z 00017G22KT 15/M01 A3017 RMK A01 T01541011  RH  032%=      5-min Rain = 0
KPG1 111605Z 01018KT 15/M01 A3017 RMK A01 T01541011  RH  032%=      5-min Rain = 0
KPG1 111606Z 01017KT 16/M01 A3017 RMK A01 T01551011  RH  032%=      5-min Rain = 0
KPG1 111607Z 00019KT 16/M01 A3017 RMK A01 T01551012  RH  032%=      5-min Rain = 0
KPG1 111608Z 01020G25KT 16/M01 A3017 RMK A01 T01551012  RH  032%=      5-min Rain = 0
KPG1 111609Z 00018KT 16/M01 A3017 RMK A01 T01551011  RH  032%=      5-min Rain = 0
KPG1 111610Z 01019G25KT 16/M01 A3017 RMK A01 T01551011  RH  032%=      5-min Rain = 0
KPG1 111611Z 36017KT 15/M01 A3017 RMK A01 T01541012  RH  032%=      5-min Rain = 0
KPG1 111612Z 00018KT 16/M01 A3017 RMK A01 T01551011  RH  032%=      5-min Rain = 0
KPG1 111613Z 36020G25KT 16/M01 A3017 RMK A01 T01551012  RH  032%=      5-min Rain = 0
KPG1 111614Z 36021KT 16/M01 A3017 RMK A01 T01551012  RH  032%=      5-min Rain = 0
KPG1 111615Z 36021G28KT 16/M01 A3017 RMK A01 T01551012  RH  032%=      5-min Rain = 0
KPG1 111616Z 36019G24KT 16/M01 A3017 RMK A01 T01551012  RH  032%=      5-min Rain = 0
KPG1 111617Z 01024KT 15/M01 A3017 RMK A01 T01541012  RH  032%=      5-min Rain = 0
KPG1 111618Z 01022G28KT 15/M01 A3017 RMK A01 T01541013  RH  032%=      5-min Rain = 0
KPG1 111619Z 01019G24KT 15/M01 A3017 RMK A01 T01541013  RH  032%=      5-min Rain = 0
KPG1 111620Z 36019G25KT 15/M01 A3017 RMK A01 T01541013  RH  032%=      5-min Rain = 0
KPG1 111621Z 35023KT 15/M01 A3017 RMK A01 T01541013  RH  032%=      5-min Rain = 0
KPG1 111622Z 01019G27KT 15/M01 A3017 RMK A01 T01541013  RH  032%=      5-min Rain = 0
KPG1 111623Z 01024KT 15/M01 A3017 RMK A01 T01541013  RH  032%=      5-min Rain = 0
KPG1 111624Z 01023G28KT 15/M01 A3017 RMK A01 T01541014  RH  032%=      5-min Rain = 0
KPG1 111625Z 00023G29KT 15/M01 A3017 RMK A01 T01541014  RH  032%=      5-min Rain = 0
KPG1 111626Z 01024KT 15/M01 A3017 RMK A01 T01531014  RH  032%=      5-min Rain = 0
KPG1 111627Z 01023KT 15/M01 A3017 RMK A01 T01531014  RH  032%=      5-min Rain = 0
KPG1 111628Z 01022G27KT 15/M01 A3017 RMK A01 T01531014  RH  032%=      5-min Rain = 0
KPG1 111629Z 00017G22KT 15/M01 A3017 RMK A01 T01541013  RH  032%=      5-min Rain = 0
KPG1 111630Z 01022KT 15/M01 A3017 RMK A01 T01541013  RH  032%=      5-min Rain = 0
KPG1 111631Z 01020G28KT 15/M01 A3017 RMK A01 T01541012  RH  032%=      5-min Rain = 0
KPG1 111632Z 01019G25KT 16/M01 A3017 RMK A01 T01551010  RH  032%=      5-min Rain = 0
KPG1 111633Z 01020G29KT 16/M01 A3017 RMK A01 T01551008  RH  033%=      5-min Rain = 0
KPG1 111634Z 00023G28KT 16/M01 A3017 RMK A01 T01551007  RH  033%=      5-min Rain = 0
KPG1 111635Z 01022KT 15/M01 A3018 RMK A01 T01541007  RH  033%=      5-min Rain = 0
KPG1 111636Z 01018G24KT 15/M01 A3018 RMK A01 T01541006  RH  033%=      5-min Rain = 0
KPG1 111637Z 01019G24KT 15/M01 A3018 RMK A01 T01541006  RH  033%=      5-min Rain = 0
KPG1 111638Z 01018G24KT 15/M01 A3018 RMK A01 T01541006  RH  033%=      5-min Rain = 0
KPG1 111639Z 01022G28KT 15/M01 A3018 RMK A01 T01541007  RH  033%=      5-min Rain = 0
KPG1 111640Z 01021KT 16/M01 A3018 RMK A01 T01551008  RH  033%=      5-min Rain = 0
KPG1 111641Z 01019KT 15/M01 A3018 RMK A01 T01541007  RH  033%=      5-min Rain = 0
KPG1 111642Z 00019G25KT 15/M01 A3018 RMK A01 T01541007  RH  033%=      5-min Rain = 0
KPG1 111643Z 01017KT 15/M01 A3018 RMK A01 T01541007  RH  033%=      5-min Rain = 0
KPG1 111644Z 02018G23KT 15/M01 A3018 RMK A01 T01541006  RH  033%=      5-min Rain = 0
KPG1 111645Z 01018KT 16/M01 A3018 RMK A01 T01551006  RH  033%=      5-min Rain = 0
KPG1 111646Z 00018G24KT 16/M01 A3018 RMK A01 T01551006  RH  033%=      5-min Rain = 0
KPG1 111647Z 01018G23KT 16/M01 A3018 RMK A01 T01551006  RH  033%=      5-min Rain = 0
KPG1 111648Z 01019G25KT 16/M01 A3019 RMK A01 T01551007  RH  033%=      5-min Rain = 0
KPG1 111649Z 00021KT 16/M01 A3018 RMK A01 T01551006  RH  033%=      5-min Rain = 0
KPG1 111650Z 01018G26KT 16/M01 A3018 RMK A01 T01551005  RH  033%=      5-min Rain = 0
KPG1 111651Z 01020KT 16/M01 A3019 RMK A01 T01551005  RH  033%=      5-min Rain = 0
KPG1 111652Z 01018KT 16/M01 A3018 RMK A01 T01551005  RH  034%=      5-min Rain = 0
KPG1 111653Z 02019KT 15/M00 A3018 RMK A01 T01541004  RH  034%=      5-min Rain = 0
KPG1 111654Z 02020G25KT 15/M00 A3018 RMK A01 T01541002  RH  034%=      5-min Rain = 0
KPG1 111655Z 02019KT 15/M00 A3018 RMK A01 T01541001  RH  035%=      5-min Rain = 0
KPG1 111656Z 02017G22KT 15/00 A3018 RMK A01 T01540001  RH  035%=      5-min Rain = 0
KPG1 111657Z 01018KT 15/00 A3018 RMK A01 T01540002  RH  035%=      5-min Rain = 0
KPG1 111658Z 01020G25KT 15/00 A3018 RMK A01 T01540001  RH  035%=      5-min Rain = 0
KPG1 111659Z 00021G26KT 15/00 A3018 RMK A01 T01540001  RH  035%=      5-min Rain = 0
KPG1 111700Z 01020KT 15/00 A3018 RMK A01 T015400-0  RH  035%=      5-min Rain = 0
KPG1 111701Z 00019G24KT 15/00 A3018 RMK A01 T01530001  RH  035%=      5-min Rain = 0
KPG1 111702Z 01019KT 15/00 A3018 RMK A01 T015300-0  RH  035%=      5-min Rain = 0
KPG1 111703Z 01017G22KT 15/M00 A3018 RMK A01 T01531001  RH  035%=      5-min Rain = 0
KPG1 111704Z 01019KT 15/M00 A3018 RMK A01 T01531001  RH  035%=      5-min Rain = 0
KPG1 111705Z 00019G24KT 15/M00 A3018 RMK A01 T01531002  RH  035%=      5-min Rain = 0
KPG1 111706Z 01018KT 15/M00 A3019 RMK A01 T01541002  RH  034%=      5-min Rain = 0
KPG1 111707Z 01017KT 16/M00 A3019 RMK A01 T01551001  RH  034%=      5-min Rain = 0
KPG1 111708Z 36015KT 16/M00 A3019 RMK A01 T01551001  RH  034%=      5-min Rain = 0
KPG1 111709Z 35017KT 16/M00 A3019 RMK A01 T01551002  RH  034%=      5-min Rain = 0
KPG1 111710Z 00016G22KT 16/M00 A3019 RMK A01 T01551001  RH  034%=      5-min Rain = 0
KPG1 111711Z 01017G22KT 16/00 A3019 RMK A01 T015600-0  RH  034%=      5-min Rain = 0
KPG1 111712Z 01014KT 16/00 A3019 RMK A01 T015600-0  RH  034%=      5-min Rain = 0
KPG1 111713Z 01016KT 16/00 A3019 RMK A01 T015600-0  RH  034%=      5-min Rain = 0
KPG1 111714Z 00016KT 16/00 A3019 RMK A01 T01560000  RH  034%=      5-min Rain = 0
KPG1 111715Z 35017KT 16/00 A3019 RMK A01 T01560001  RH  035%=      5-min Rain = 0
KPG1 111716Z 01014KT 16/01 A3019 RMK A01 T01560005  RH  036%=      5-min Rain = 0
KPG1 111717Z 02019KT 16/01 A3019 RMK A01 T01560011  RH  037%=      5-min Rain = 0
KPG1 111718Z 02016KT 16/01 A302 RMK A01 T01550014  RH  038%=      5-min Rain = 0
KPG1 111719Z 03017KT 15/02 A302 RMK A01 T01530020  RH  040%=      5-min Rain = 0
KPG1 111720Z 03017KT 15/02 A302 RMK A01 T01530023  RH  041%=      5-min Rain = 0
KPG1 111721Z 03015KT 15/02 A302 RMK A01 T01520024  RH  042%=      5-min Rain = 0
KPG1 111722Z 03014KT 15/03 A302 RMK A01 T01510025  RH  043%=      5-min Rain = 0
KPG1 111723Z 03015G22KT 15/03 A302 RMK A01 T01510030  RH  044%=      5-min Rain = 0
KPG1 111724Z 03016KT 15/03 A302 RMK A01 T01520027  RH  043%=      5-min Rain = 0
KPG1 111725Z 03015KT 15/03 A302 RMK A01 T01520025  RH  042%=      5-min Rain = 0
KPG1 111726Z 04014KT 15/03 A302 RMK A01 T01520025  RH  042%=      5-min Rain = 0
KPG1 111727Z 03015G23KT 15/03 A302 RMK A01 T01520028  RH  043%=      5-min Rain = 0
KPG1 111728Z 04018KT 15/02 A302 RMK A01 T01520023  RH  042%=      5-min Rain = 0
KPG1 111729Z 04020KT 15/02 A302 RMK A01 T01520021  RH  041%=      5-min Rain = 0
KPG1 111730Z 04019KT 15/02 A302 RMK A01 T01510018  RH  041%=      5-min Rain = 0
KPG1 111731Z 04022KT 15/02 A302 RMK A01 T01510018  RH  041%=      5-min Rain = 0
KPG1 111732Z 03019G24KT 15/02 A302 RMK A01 T01500017  RH  041%=      5-min Rain = 0
KPG1 111733Z 04020KT 15/02 A302 RMK A01 T01500017  RH  040%=      5-min Rain = 0
KPG1 111734Z 04020KT 15/02 A302 RMK A01 T01500015  RH  040%=      5-min Rain = 0
KPG1 111735Z 04018KT 15/01 A302 RMK A01 T01500014  RH  039%=      5-min Rain = 0
KPG1 111736Z 04017KT 15/01 A302 RMK A01 T01500013  RH  039%=      5-min Rain = 0
KPG1 111737Z 03017KT 15/02 A302 RMK A01 T01500016  RH  040%=      5-min Rain = 0
KPG1 111738Z 03018KT 15/02 A302 RMK A01 T01500015  RH  040%=      5-min Rain = 0
KPG1 111739Z 02015KT 15/02 A302 RMK A01 T01500018  RH  041%=      5-min Rain = 0
KPG1 111740Z 02014KT 15/02 A302 RMK A01 T01500020  RH  041%=      5-min Rain = 0
KPG1 111741Z 03016KT 15/02 A302 RMK A01 T01510021  RH  041%=      5-min Rain = 0
KPG1 111742Z 03017KT 15/02 A302 RMK A01 T01510018  RH  041%=      5-min Rain = 0
KPG1 111743Z 03015KT 15/02 A302 RMK A01 T01500017  RH  040%=      5-min Rain = 0
KPG1 111744Z 03014KT 15/02 A302 RMK A01 T01500021  RH  042%=      5-min Rain = 0
KPG1 111745Z 03017KT 15/02 A302 RMK A01 T01500021  RH  042%=      5-min Rain = 0
KPG1 111746Z 04014KT 15/02 A302 RMK A01 T01500021  RH  042%=      5-min Rain = 0
KPG1 111747Z 04017KT 15/03 A302 RMK A01 T01490025  RH  043%=      5-min Rain = 0
KPG1 111748Z 04018KT 15/02 A302 RMK A01 T01490022  RH  042%=      5-min Rain = 0
KPG1 111749Z 03018KT 15/02 A302 RMK A01 T01480019  RH  042%=      5-min Rain = 0
KPG1 111750Z 03017KT 15/02 A302 RMK A01 T01470020  RH  042%=      5-min Rain = 0
KPG1 111751Z 04015KT 15/02 A302 RMK A01 T01470020  RH  042%=      5-min Rain = 0
KPG1 111752Z 04015KT 15/02 A302 RMK A01 T01460022  RH  043%=      5-min Rain = 0
KPG1 111753Z 04014G19KT 15/02 A302 RMK A01 T01460021  RH  043%=      5-min Rain = 0
KPG1 111754Z 03016KT 15/02 A302 RMK A01 T01460021  RH  043%=      5-min Rain = 0
KPG1 111755Z 04015KT 15/02 A302 RMK A01 T01460020  RH  043%=      5-min Rain = 0
KPG1 111756Z 04016KT 15/02 A302 RMK A01 T01460023  RH  043%=      5-min Rain = 0
KPG1 111757Z 04015KT 15/02 A302 RMK A01 T01460022  RH  043%=      5-min Rain = 0
KPG1 111758Z 04015KT 15/02 A302 RMK A01 T01460022  RH  043%=      5-min Rain = 0
KPG1 111759Z 03016KT 15/02 A302 RMK A01 T01460024  RH  044%=      5-min Rain = 0
KPG1 111800Z 04016KT 15/02 A302 RMK A01 T01460021  RH  043%=      5-min Rain = 0
KPG1 111801Z 03015KT 15/02 A302 RMK A01 T01460021  RH  043%=      5-min Rain = 0
KPG1 111802Z 03012KT 15/02 A302 RMK A01 T01460024  RH  044%=      5-min Rain = 0
KPG1 111803Z 03014KT 15/03 A3021 RMK A01 T01460027  RH  045%=      5-min Rain = 0
KPG1 111804Z 03013KT 15/03 A3021 RMK A01 T01460025  RH  044%=      5-min Rain = 0
KPG1 111805Z 03015KT 15/02 A3021 RMK A01 T01460022  RH  043%=      5-min Rain = 0
KPG1 111806Z 03015KT 15/02 A3021 RMK A01 T01470019  RH  042%=      5-min Rain = 0
KPG1 111807Z 02012KT 15/02 A3021 RMK A01 T01470018  RH  042%=      5-min Rain = 0
KPG1 111808Z 03013KT 15/02 A3021 RMK A01 T01470021  RH  043%=      5-min Rain = 0
KPG1 111809Z 04011KT 15/02 A3021 RMK A01 T01470023  RH  043%=      5-min Rain = 0
KPG1 111810Z 03012KT 15/02 A3021 RMK A01 T01470024  RH  043%=      5-min Rain = 0
KPG1 111811Z 03009KT 15/03 A3021 RMK A01 T01470025  RH  044%=      5-min Rain = 0
KPG1 111812Z 03010KT 15/03 A3021 RMK A01 T01470029  RH  045%=      5-min Rain = 0
KPG1 111813Z 03011KT 15/03 A3021 RMK A01 T01470029  RH  045%=      5-min Rain = 0
KPG1 111814Z 03014KT 15/03 A3021 RMK A01 T01470026  RH  044%=      5-min Rain = 0
KPG1 111815Z 03012G18KT 15/03 A3021 RMK A01 T01480025  RH  044%=      5-min Rain = 0
KPG1 111816Z 02014KT 15/02 A3021 RMK A01 T01480023  RH  043%=      5-min Rain = 0
KPG1 111817Z 03012KT 15/02 A302 RMK A01 T01470023  RH  043%=      5-min Rain = 0
KPG1 111818Z 04015KT 15/03 A302 RMK A01 T01480027  RH  044%=      5-min Rain = 0
KPG1 111819Z 03016G21KT 15/03 A302 RMK A01 T01470029  RH  045%=      5-min Rain = 0
KPG1 111820Z 05013KT 15/03 A302 RMK A01 T01460031  RH  046%=      5-min Rain = 0
KPG1 111821Z 07016KT 15/03 A302 RMK A01 T01450034  RH  047%=      5-min Rain = 0
KPG1 111822Z 07015KT 14/03 A302 RMK A01 T01430030  RH  047%=      5-min Rain = 0
KPG1 111823Z 06015KT 14/03 A302 RMK A01 T01420031  RH  047%=      5-min Rain = 0
KPG1 111824Z 07017KT 14/04 A302 RMK A01 T01420035  RH  048%=      5-min Rain = 0
KPG1 111825Z 06015KT 14/04 A302 RMK A01 T01420037  RH  049%=      5-min Rain = 0
KPG1 111826Z 06015KT 14/04 A302 RMK A01 T01410038  RH  050%=      5-min Rain = 0
KPG1 111827Z 06017KT 14/04 A302 RMK A01 T01400041  RH  051%=      5-min Rain = 0
KPG1 111828Z 06017KT 14/04 A302 RMK A01 T01390040  RH  051%=      5-min Rain = 0
KPG1 111829Z 07016KT 14/04 A302 RMK A01 T01390039  RH  051%=      5-min Rain = 0
KPG1 111830Z 05011KT 14/04 A302 RMK A01 T01390042  RH  052%=      5-min Rain = 0
KPG1 111831Z 06012G17KT 14/05 A302 RMK A01 T01390047  RH  054%=      5-min Rain = 0
KPG1 111832Z 05013KT 14/04 A302 RMK A01 T01390043  RH  052%=      5-min Rain = 0
KPG1 111833Z 05016KT 14/04 A302 RMK A01 T01390040  RH  051%=      5-min Rain = 0
KPG1 111834Z 04014KT 14/04 A302 RMK A01 T01400040  RH  051%=      5-min Rain = 0
KPG1 111835Z 04015KT 14/04 A3021 RMK A01 T01390041  RH  051%=      5-min Rain = 0
KPG1 111836Z 03014KT 14/04 A3021 RMK A01 T01390040  RH  051%=      5-min Rain = 0
KPG1 111837Z 05015KT 14/04 A3021 RMK A01 T01390039  RH  051%=      5-min Rain = 0
KPG1 111838Z 04014KT 14/04 A3021 RMK A01 T01380037  RH  051%=      5-min Rain = 0
KPG1 111839Z 04013KT 14/04 A3021 RMK A01 T01370039  RH  052%=      5-min Rain = 0
KPG1 111840Z 04011KT 14/04 A3021 RMK A01 T01360043  RH  053%=      5-min Rain = 0
KPG1 111841Z 05011KT 14/04 A3021 RMK A01 T01360044  RH  054%=      5-min Rain = 0
KPG1 111842Z 06012KT 14/05 A3021 RMK A01 T01350046  RH  055%=      5-min Rain = 0
KPG1 111843Z 05010KT 14/05 A3021 RMK A01 T01350049  RH  056%=      5-min Rain = 0
KPG1 111844Z 05012KT 14/05 A3021 RMK A01 T01350048  RH  056%=      5-min Rain = 0
KPG1 111845Z 05012KT 13/05 A3021 RMK A01 T01340049  RH  056%=      5-min Rain = 0
KPG1 111846Z 06011KT 13/05 A3021 RMK A01 T01340048  RH  056%=      5-min Rain = 0
KPG1 111847Z 06013KT 13/05 A3021 RMK A01 T01330046  RH  055%=      5-min Rain = 0
KPG1 111848Z 05010KT 13/05 A3021 RMK A01 T01330050  RH  057%=      5-min Rain = 0
KPG1 111849Z 04011KT 13/05 A3021 RMK A01 T01330053  RH  058%=      5-min Rain = 0
KPG1 111850Z 05011KT 13/05 A3021 RMK A01 T01330049  RH  057%=      5-min Rain = 0
KPG1 111851Z 04012KT 13/05 A3021 RMK A01 T01330053  RH  058%=      5-min Rain = 0
KPG1 111852Z 05012KT 13/05 A3021 RMK A01 T01320049  RH  057%=      5-min Rain = 0
KPG1 111853Z 04011KT 13/05 A3021 RMK A01 T01320050  RH  058%=      5-min Rain = 0
KPG1 111854Z 05010KT 13/05 A3021 RMK A01 T01320049  RH  057%=      5-min Rain = 0
KPG1 111855Z 05012KT 13/05 A3021 RMK A01 T01320052  RH  059%=      5-min Rain = 0
KPG1 111856Z 03014KT 13/05 A3021 RMK A01 T01320048  RH  057%=      5-min Rain = 0
KPG1 111857Z 03014KT 13/05 A3021 RMK A01 T01320049  RH  057%=      5-min Rain = 0
KPG1 111858Z 04012KT 13/05 A3021 RMK A01 T01310050  RH  058%=      5-min Rain = 0
KPG1 111859Z 05010KT 13/05 A3021 RMK A01 T01310053  RH  059%=      5-min Rain = 0
KPG1 111900Z 05012KT 13/05 A3021 RMK A01 T01310050  RH  058%=      5-min Rain = 0
KPG1 111901Z 06011KT 13/05 A3021 RMK A01 T01310050  RH  058%=      5-min Rain = 0
KPG1 111902Z 06012G18KT 13/05 A3021 RMK A01 T01310054  RH  060%=      5-min Rain = 0
KPG1 111903Z 07014KT 13/05 A3021 RMK A01 T01300052  RH  059%=      5-min Rain = 0
KPG1 111904Z 06015KT 13/05 A3021 RMK A01 T01290052  RH  059%=      5-min Rain = 0
KPG1 111905Z 07015KT 13/05 A3021 RMK A01 T01280050  RH  059%=      5-min Rain = 0
KPG1 111906Z 06015KT 13/05 A3021 RMK A01 T01280049  RH  059%=      5-min Rain = 0
KPG1 111907Z 06014KT 13/05 A3021 RMK A01 T01270052  RH  060%=      5-min Rain = 0
KPG1 111908Z 06013KT 13/05 A3021 RMK A01 T01270051  RH  060%=      5-min Rain = 0
KPG1 111909Z 06013KT 13/05 A3021 RMK A01 T01270053  RH  061%=      5-min Rain = 0
KPG1 111910Z 06011KT 13/06 A3021 RMK A01 T01270055  RH  062%=      5-min Rain = 0
KPG1 111911Z 06011KT 13/06 A3021 RMK A01 T01270057  RH  062%=      5-min Rain = 0
KPG1 111912Z 05010KT 13/05 A3021 RMK A01 T01270053  RH  061%=      5-min Rain = 0
KPG1 111913Z 05012KT 13/05 A302 RMK A01 T01280053  RH  060%=      5-min Rain = 0
KPG1 111914Z 06011KT 13/05 A302 RMK A01 T01280050  RH  059%=      5-min Rain = 0
KPG1 111915Z 04013KT 13/05 A302 RMK A01 T01290050  RH  059%=      5-min Rain = 0
KPG1 111916Z 04013KT 13/05 A302 RMK A01 T01300046  RH  057%=      5-min Rain = 0
KPG1 111917Z 04013KT 13/05 A302 RMK A01 T01300045  RH  056%=      5-min Rain = 0
KPG1 111918Z 04014KT 13/05 A302 RMK A01 T01300045  RH  056%=      5-min Rain = 0
KPG1 111919Z 04010G15KT 13/05 A302 RMK A01 T01300045  RH  056%=      5-min Rain = 0
KPG1 111920Z 04011KT 13/05 A302 RMK A01 T01310051  RH  058%=      5-min Rain = 0
KPG1 111921Z 04012KT 13/05 A302 RMK A01 T01310047  RH  057%=      5-min Rain = 0
KPG1 111922Z 04012KT 13/04 A302 RMK A01 T01310044  RH  055%=      5-min Rain = 0
KPG1 111923Z 04011KT 13/04 A302 RMK A01 T01310044  RH  055%=      5-min Rain = 0
KPG1 111924Z 04010KT 13/04 A302 RMK A01 T01310044  RH  055%=      5-min Rain = 0
KPG1 111925Z 04011KT 13/04 A302 RMK A01 T01320043  RH  055%=      5-min Rain = 0
KPG1 111926Z 05008KT 13/05 A302 RMK A01 T01320045  RH  055%=      5-min Rain = 0
KPG1 111927Z 04008KT 13/05 A302 RMK A01 T01330048  RH  056%=      5-min Rain = 0
KPG1 111928Z 05011KT 13/05 A302 RMK A01 T01340046  RH  055%=      5-min Rain = 0
KPG1 111929Z 03011KT 14/04 A302 RMK A01 T01350042  RH  053%=      5-min Rain = 0
KPG1 111930Z 04010KT 14/04 A302 RMK A01 T01350041  RH  053%=      5-min Rain = 0
KPG1 111931Z 04011KT 14/04 A302 RMK A01 T01350039  RH  052%=      5-min Rain = 0
KPG1 111932Z 03014KT 14/04 A302 RMK A01 T01360038  RH  052%=      5-min Rain = 0
KPG1 111933Z 04012KT 14/04 A302 RMK A01 T01360038  RH  052%=      5-min Rain = 0
KPG1 111934Z 04013KT 14/04 A302 RMK A01 T01370039  RH  051%=      5-min Rain = 0
KPG1 111935Z 03015G21KT 14/04 A302 RMK A01 T01380037  RH  050%=      5-min Rain = 0
KPG1 111936Z 04012G17KT 14/03 A302 RMK A01 T01380034  RH  049%=      5-min Rain = 0
KPG1 111937Z 03016KT 14/04 A302 RMK A01 T01390037  RH  050%=      5-min Rain = 0
KPG1 111938Z 04016KT 14/04 A302 RMK A01 T01400036  RH  050%=      5-min Rain = 0
KPG1 111939Z 04014KT 14/03 A302 RMK A01 T01400034  RH  049%=      5-min Rain = 0
KPG1 111940Z 03016KT 14/03 A3019 RMK A01 T01400032  RH  048%=      5-min Rain = 0
KPG1 111941Z 03015KT 14/03 A3019 RMK A01 T01390030  RH  048%=      5-min Rain = 0
KPG1 111942Z 03016KT 14/03 A3019 RMK A01 T01390030  RH  048%=      5-min Rain = 0
KPG1 111943Z 05014KT 14/03 A3019 RMK A01 T01390030  RH  048%=      5-min Rain = 0
KPG1 111944Z 05014KT 14/03 A3019 RMK A01 T01390030  RH  048%=      5-min Rain = 0
KPG1 111945Z 04012KT 14/03 A3019 RMK A01 T01400027  RH  046%=      5-min Rain = 0
KPG1 111946Z 04014KT 14/03 A3019 RMK A01 T01400029  RH  047%=      5-min Rain = 0
KPG1 111947Z 03015KT 14/03 A3019 RMK A01 T01410028  RH  047%=      5-min Rain = 0
KPG1 111948Z 03014G19KT 14/03 A3019 RMK A01 T01410028  RH  047%=      5-min Rain = 0
KPG1 111949Z 03013KT 14/03 A3019 RMK A01 T01410029  RH  047%=      5-min Rain = 0
KPG1 111950Z 03014KT 14/03 A3019 RMK A01 T01410029  RH  047%=      5-min Rain = 0
KPG1 111951Z 04012KT 14/03 A3019 RMK A01 T01420028  RH  046%=      5-min Rain = 0
KPG1 111952Z 05010G15KT 14/03 A3019 RMK A01 T01420029  RH  047%=      5-min Rain = 0
KPG1 111953Z 05013KT 14/03 A3019 RMK A01 T01430028  RH  046%=      5-min Rain = 0
KPG1 111954Z 03014KT 14/03 A3019 RMK A01 T01430027  RH  046%=      5-min Rain = 0
KPG1 111955Z 04015KT 14/02 A3018 RMK A01 T01430024  RH  045%=      5-min Rain = 0
KPG1 111956Z 04015KT 14/02 A3018 RMK A01 T01440024  RH  044%=      5-min Rain = 0
KPG1 111957Z 03014KT 14/02 A3018 RMK A01 T01440022  RH  044%=      5-min Rain = 0
KPG1 111958Z 04015KT 15/02 A3019 RMK A01 T01450021  RH  043%=      5-min Rain = 0
KPG1 111959Z 03015G20KT 15/02 A3019 RMK A01 T01450021  RH  043%=      5-min Rain = 0
KPG1 112000Z 04017KT 15/02 A3019 RMK A01 T01460020  RH  043%=      5-min Rain = 0
KPG1 112001Z 04017KT 15/02 A3019 RMK A01 T01450019  RH  042%=      5-min Rain = 0
KPG1 112002Z 03016KT 15/02 A3019 RMK A01 T01460020  RH  043%=      5-min Rain = 0
KPG1 112003Z 03019KT 15/02 A3019 RMK A01 T01470019  RH  042%=      5-min Rain = 0
KPG1 112004Z 04015KT 15/02 A3019 RMK A01 T01480017  RH  041%=      5-min Rain = 0
KPG1 112005Z 03014KT 15/02 A3019 RMK A01 T01480020  RH  042%=      5-min Rain = 0
KPG1 112006Z 03016KT 15/02 A3019 RMK A01 T01500019  RH  041%=      5-min Rain = 0
KPG1 112007Z 03016KT 15/02 A3019 RMK A01 T01490017  RH  041%=      5-min Rain = 0
KPG1 112008Z 03016KT 15/02 A3019 RMK A01 T01480017  RH  041%=      5-min Rain = 0
KPG1 112009Z 03013KT 15/02 A3019 RMK A01 T01480018  RH  041%=      5-min Rain = 0
KPG1 112010Z 05012KT 15/02 A3019 RMK A01 T01490019  RH  041%=      5-min Rain = 0
KPG1 112011Z 05012KT 15/02 A3019 RMK A01 T01500020  RH  041%=      5-min Rain = 0
KPG1 112012Z 04014G20KT 15/02 A3019 RMK A01 T01520020  RH  041%=      5-min Rain = 0
KPG1 112013Z 03017KT 15/02 A3019 RMK A01 T01520019  RH  041%=      5-min Rain = 0
KPG1 112014Z 03014KT 15/02 A3019 RMK A01 T01510018  RH  041%=      5-min Rain = 0
KPG1 112015Z 05012KT 15/02 A3018 RMK A01 T01510018  RH  041%=      5-min Rain = 0
KPG1 112016Z 04014KT 15/02 A3018 RMK A01 T01510019  RH  041%=      5-min Rain = 0
KPG1 112017Z 04013KT 15/02 A3018 RMK A01 T01520018  RH  040%=      5-min Rain = 0
KPG1 112018Z 04012KT 15/02 A3018 RMK A01 T01510016  RH  040%=      5-min Rain = 0
KPG1 112019Z 04010KT 15/02 A3018 RMK A01 T01510017  RH  040%=      5-min Rain = 0
KPG1 112020Z 04009KT 15/02 A3018 RMK A01 T01520018  RH  040%=      5-min Rain = 0
KPG1 112021Z 05015KT 15/02 A3018 RMK A01 T01540018  RH  040%=      5-min Rain = 0
KPG1 112022Z 04014KT 15/01 A3019 RMK A01 T01540013  RH  038%=      5-min Rain = 0
KPG1 112023Z 03013KT 15/01 A3019 RMK A01 T01520012  RH  039%=      5-min Rain = 0
KPG1 112024Z 04013KT 15/01 A3019 RMK A01 T01520011  RH  038%=      5-min Rain = 0
KPG1 112025Z 05012KT 15/01 A3019 RMK A01 T01510012  RH  039%=      5-min Rain = 0
KPG1 112026Z 05009KT 15/01 A3019 RMK A01 T01520011  RH  038%=      5-min Rain = 0
KPG1 112027Z 04013KT 15/01 A3018 RMK A01 T01530013  RH  038%=      5-min Rain = 0
KPG1 112028Z 04014KT 15/01 A3018 RMK A01 T01540011  RH  038%=      5-min Rain = 0
KPG1 112029Z 04014KT 15/01 A3018 RMK A01 T01540012  RH  038%=      5-min Rain = 0
KPG1 112030Z 07016KT 15/01 A3018 RMK A01 T01540010  RH  038%=      5-min Rain = 0
KPG1 112031Z 06015KT 15/01 A3018 RMK A01 T01540009  RH  037%=      5-min Rain = 0
KPG1 112032Z 05013KT 15/01 A3018 RMK A01 T01530009  RH  038%=      5-min Rain = 0
KPG1 112033Z 06012KT 15/01 A3018 RMK A01 T01530009  RH  038%=      5-min Rain = 0
KPG1 112034Z 08014KT 15/01 A3018 RMK A01 T01530009  RH  038%=      5-min Rain = 0
KPG1 112035Z 06012KT 15/01 A3018 RMK A01 T01530009  RH  037%=      5-min Rain = 0
KPG1 112036Z 07015KT 15/01 A3018 RMK A01 T01530009  RH  038%=      5-min Rain = 0
KPG1 112037Z 06013KT 15/01 A3018 RMK A01 T01530008  RH  037%=      5-min Rain = 0
KPG1 112038Z 06014KT 15/01 A3018 RMK A01 T01520010  RH  038%=      5-min Rain = 0
KPG1 112039Z 07015KT 15/01 A3018 RMK A01 T01540009  RH  038%=      5-min Rain = 0
KPG1 112040Z 07013KT 15/01 A3018 RMK A01 T01530009  RH  037%=      5-min Rain = 0
KPG1 112041Z 06011KT 15/01 A3018 RMK A01 T01530009  RH  038%=      5-min Rain = 0
KPG1 112042Z 06012KT 15/01 A3018 RMK A01 T01540009  RH  037%=      5-min Rain = 0
KPG1 112043Z 06012KT 15/01 A3018 RMK A01 T01540010  RH  038%=      5-min Rain = 0
KPG1 112044Z 05011G16KT 16/01 A3018 RMK A01 T01550011  RH  037%=      5-min Rain = 0
KPG1 112045Z 04013KT 16/01 A3018 RMK A01 T01560009  RH  037%=      5-min Rain = 0
KPG1 112046Z 03012KT 16/01 A3018 RMK A01 T01570007  RH  036%=      5-min Rain = 0
KPG1 112047Z 04010KT 16/01 A3018 RMK A01 T01570008  RH  036%=      5-min Rain = 0
KPG1 112048Z 04014KT 16/01 A3018 RMK A01 T01590010  RH  036%=      5-min Rain = 0
KPG1 112049Z 03012KT 16/01 A3018 RMK A01 T01600009  RH  036%=      5-min Rain = 0
KPG1 112050Z 03013KT 16/01 A3018 RMK A01 T01610008  RH  035%=      5-min Rain = 0
KPG1 112051Z 04013KT 16/00 A3018 RMK A01 T01600004  RH  035%=      5-min Rain = 0
KPG1 112052Z 04010KT 16/00 A3018 RMK A01 T01580003  RH  035%=      5-min Rain = 0
KPG1 112053Z 04015G20KT 16/00 A3018 RMK A01 T01590004  RH  035%=      5-min Rain = 0
KPG1 112054Z 04016KT 16/00 A3018 RMK A01 T01600003  RH  034%=      5-min Rain = 0
KPG1 112055Z 04017KT 16/00 A3018 RMK A01 T01600002  RH  034%=      5-min Rain = 0
KPG1 112056Z 03015KT 16/00 A3018 RMK A01 T01610001  RH  034%=      5-min Rain = 0
KPG1 112057Z 03016KT 16/00 A3018 RMK A01 T01610001  RH  034%=      5-min Rain = 0
KPG1 112058Z 03016G21KT 16/00 A3018 RMK A01 T01620001  RH  033%=      5-min Rain = 0
KPG1 112059Z 03019KT 16/M00 A3018 RMK A01 T01621002  RH  033%=      5-min Rain = 0
KPG1 112100Z 03019KT 16/M00 A3018 RMK A01 T01601003  RH  033%=      5-min Rain = 0
KPG1 112101Z 04017KT 16/M00 A3018 RMK A01 T01591003  RH  033%=      5-min Rain = 0
KPG1 112102Z 03016KT 16/M00 A3018 RMK A01 T01581004  RH  033%=      5-min Rain = 0
KPG1 112103Z 03018KT 16/M00 A3018 RMK A01 T01581002  RH  033%=      5-min Rain = 0
KPG1 112104Z 03016KT 16/M00 A3018 RMK A01 T01581002  RH  034%=      5-min Rain = 0
KPG1 112105Z 03015KT 16/M00 A3018 RMK A01 T01571002  RH  034%=      5-min Rain = 0
KPG1 112106Z 04017KT 16/M00 A3018 RMK A01 T01581002  RH  034%=      5-min Rain = 0
KPG1 112107Z 03016G22KT 16/M00 A3018 RMK A01 T01581003  RH  033%=      5-min Rain = 0
KPG1 112108Z 03017G23KT 16/M00 A3018 RMK A01 T01571003  RH  033%=      5-min Rain = 0
KPG1 112109Z 03017KT 16/M00 A3018 RMK A01 T01561004  RH  034%=      5-min Rain = 0
KPG1 112110Z 04015KT 16/M00 A3018 RMK A01 T01561003  RH  034%=      5-min Rain = 0
KPG1 112111Z 03016KT 16/M00 A3017 RMK A01 T01551003  RH  034%=      5-min Rain = 0
KPG1 112112Z 03015KT 16/M00 A3017 RMK A01 T01561003  RH  034%=      5-min Rain = 0
KPG1 112113Z 04013KT 16/M00 A3017 RMK A01 T01561003  RH  034%=      5-min Rain = 0
KPG1 112114Z 06014KT 16/M00 A3017 RMK A01 T01561003  RH  034%=      5-min Rain = 0
KPG1 112115Z 07014KT 16/M00 A3017 RMK A01 T01581003  RH  033%=      5-min Rain = 0
KPG1 112116Z 06013KT 16/M00 A3017 RMK A01 T01581004  RH  033%=      5-min Rain = 0
KPG1 112117Z 06011KT 16/M00 A3017 RMK A01 T01581004  RH  033%=      5-min Rain = 0
KPG1 112118Z 05011KT 16/M00 A3017 RMK A01 T01581004  RH  033%=      5-min Rain = 0
KPG1 112119Z 05011KT 16/M00 A3017 RMK A01 T01591004  RH  033%=      5-min Rain = 0
KPG1 112120Z 04014KT 16/M01 A3017 RMK A01 T01591005  RH  033%=      5-min Rain = 0
KPG1 112121Z 05012KT 16/M01 A3017 RMK A01 T01591007  RH  032%=      5-min Rain = 0
KPG1 112122Z 05012KT 16/M01 A3017 RMK A01 T01591006  RH  033%=      5-min Rain = 0
KPG1 112123Z 04014KT 16/M01 A3016 RMK A01 T01581007  RH  032%=      5-min Rain = 0
KPG1 112124Z 04015KT 16/M01 A3016 RMK A01 T01571008  RH  032%=      5-min Rain = 0
KPG1 112125Z 05012KT 16/M01 A3016 RMK A01 T01561007  RH  033%=      5-min Rain = 0
KPG1 112126Z 06014KT 16/M01 A3016 RMK A01 T01561006  RH  033%=      5-min Rain = 0
KPG1 112127Z 05014KT 16/M01 A3016 RMK A01 T01571005  RH  033%=      5-min Rain = 0
KPG1 112128Z 04016KT 16/M01 A3016 RMK A01 T01581005  RH  033%=      5-min Rain = 0
KPG1 112129Z 05013KT 16/M01 A3016 RMK A01 T01571005  RH  033%=      5-min Rain = 0
KPG1 112130Z 03013G20KT 16/M00 A3016 RMK A01 T01571004  RH  033%=      5-min Rain = 0
KPG1 112131Z 04016KT 16/M00 A3016 RMK A01 T01581004  RH  033%=      5-min Rain = 0
KPG1 112132Z 05012KT 16/M01 A3016 RMK A01 T01571005  RH  033%=      5-min Rain = 0
KPG1 112133Z 04011KT 16/M00 A3016 RMK A01 T01581004  RH  033%=      5-min Rain = 0
KPG1 112134Z 05015G21KT 16/M01 A3016 RMK A01 T01581005  RH  033%=      5-min Rain = 0
KPG1 112135Z 04012KT 16/M01 A3016 RMK A01 T01571005  RH  033%=      5-min Rain = 0
KPG1 112136Z 07017KT 16/M01 A3016 RMK A01 T01571005  RH  033%=      5-min Rain = 0
KPG1 112137Z 07016G21KT 16/M01 A3016 RMK A01 T01561006  RH  033%=      5-min Rain = 0
KPG1 112138Z 07014KT 16/M01 A3016 RMK A01 T01561005  RH  033%=      5-min Rain = 0
KPG1 112139Z 04013KT 16/M01 A3016 RMK A01 T01561005  RH  033%=      5-min Rain = 0
KPG1 112140Z 05011KT 16/M01 A3016 RMK A01 T01571006  RH  033%=      5-min Rain = 0
KPG1 112141Z 03014KT 16/M00 A3016 RMK A01 T01571004  RH  033%=      5-min Rain = 0
KPG1 112142Z 03017KT 16/M01 A3016 RMK A01 T01581005  RH  033%=      5-min Rain = 0
KPG1 112143Z 04015KT 16/M01 A3016 RMK A01 T01581006  RH  033%=      5-min Rain = 0
KPG1 112144Z 04018KT 16/M01 A3016 RMK A01 T01571007  RH  032%=      5-min Rain = 0
KPG1 112145Z 03020G25KT 16/M01 A3016 RMK A01 T01571008  RH  032%=      5-min Rain = 0
KPG1 112146Z 03016G21KT 16/M01 A3016 RMK A01 T01571008  RH  032%=      5-min Rain = 0
KPG1 112147Z 03019G24KT 16/M01 A3016 RMK A01 T01571008  RH  032%=      5-min Rain = 0
KPG1 112148Z 03018KT 16/M01 A3016 RMK A01 T01571008  RH  032%=      5-min Rain = 0
KPG1 112149Z 03016KT 16/M01 A3016 RMK A01 T01571007  RH  032%=      5-min Rain = 0
KPG1 112150Z 05015G20KT 16/M01 A3016 RMK A01 T01561008  RH  032%=      5-min Rain = 0
KPG1 112151Z 04014KT 16/M01 A3016 RMK A01 T01551009  RH  033%=      5-min Rain = 0
KPG1 112152Z 04014G19KT 16/M01 A3016 RMK A01 T01561007  RH  033%=      5-min Rain = 0
KPG1 112153Z 03014KT 16/M01 A3016 RMK A01 T01581006  RH  033%=      5-min Rain = 0
KPG1 112154Z 03016KT 16/M01 A3016 RMK A01 T01591007  RH  032%=      5-min Rain = 0
KPG1 112155Z 02017KT 16/M01 A3016 RMK A01 T01581007  RH  032%=      5-min Rain = 0
KPG1 112156Z 03015G23KT 16/M01 A3016 RMK A01 T01571008  RH  032%=      5-min Rain = 0
KPG1 112157Z 04013G18KT 16/M01 A3016 RMK A01 T01571007  RH  033%=      5-min Rain = 0
KPG1 112158Z 03013KT 16/M01 A3016 RMK A01 T01581007  RH  032%=      5-min Rain = 0
KPG1 112159Z 04010G15KT 16/M01 A3016 RMK A01 T01581007  RH  032%=      5-min Rain = 0
KPG1 112200Z 06009KT 16/M01 A3016 RMK A01 T01601005  RH  032%=      5-min Rain = 0
KPG1 112201Z 05009KT 16/M01 A3016 RMK A01 T01611007  RH  032%=      5-min Rain = 0
KPG1 112202Z 04011KT 16/M01 A3016 RMK A01 T01621005  RH  032%=      5-min Rain = 0
KPG1 112203Z 04012G20KT 16/M01 A3016 RMK A01 T01631006  RH  032%=      5-min Rain = 0
KPG1 112204Z 04012KT 16/M01 A3016 RMK A01 T01641007  RH  031%=      5-min Rain = 0
KPG1 112205Z 05014KT 16/M01 A3016 RMK A01 T01631008  RH  031%=      5-min Rain = 0
KPG1 112206Z 05013KT 16/M01 A3016 RMK A01 T01621008  RH  031%=      5-min Rain = 0
KPG1 112207Z 06012G18KT 16/M01 A3016 RMK A01 T01611009  RH  031%=      5-min Rain = 0
KPG1 112208Z 06010KT 16/M01 A3016 RMK A01 T01611007  RH  032%=      5-min Rain = 0
KPG1 112209Z 06015G20KT 16/M01 A3016 RMK A01 T01611007  RH  032%=      5-min Rain = 0
KPG1 112210Z 07016KT 16/M01 A3016 RMK A01 T01611008  RH  031%=      5-min Rain = 0
KPG1 112211Z 07016KT 16/M01 A3016 RMK A01 T01611009  RH  031%=      5-min Rain = 0
KPG1 112212Z 07017KT 16/M01 A3016 RMK A01 T01601009  RH  032%=      5-min Rain = 0
KPG1 112213Z 07015KT 16/M01 A3017 RMK A01 T01591010  RH  031%=      5-min Rain = 0
KPG1 112214Z 07012KT 16/M01 A3016 RMK A01 T01581010  RH  032%=      5-min Rain = 0
KPG1 112215Z 06011KT 16/M01 A3016 RMK A01 T01591009  RH  032%=      5-min Rain = 0
KPG1 112216Z 04012G18KT 16/M01 A3016 RMK A01 T01591010  RH  031%=      5-min Rain = 0
KPG1 112217Z 05011G16KT 16/M01 A3016 RMK A01 T01591010  RH  032%=      5-min Rain = 0
KPG1 112218Z 03016G22KT 16/M01 A3016 RMK A01 T01601009  RH  032%=      5-min Rain = 0
KPG1 112219Z 04016KT 16/M01 A3016 RMK A01 T01601009  RH  031%=      5-min Rain = 0
KPG1 112220Z 03012KT 16/M01 A3016 RMK A01 T01601010  RH  031%=      5-min Rain = 0
KPG1 112221Z 06012KT 16/M01 A3016 RMK A01 T01601009  RH  031%=      5-min Rain = 0
KPG1 112222Z 06016KT 16/M01 A3016 RMK A01 T01611010  RH  031%=      5-min Rain = 0
KPG1 112223Z 07014KT 16/M01 A3016 RMK A01 T01601010  RH  031%=      5-min Rain = 0
KPG1 112224Z 08016KT 16/M01 A3016 RMK A01 T01601010  RH  031%=      5-min Rain = 0
KPG1 112225Z 07013KT 16/M01 A3016 RMK A01 T01601011  RH  031%=      5-min Rain = 0
KPG1 112226Z 05014KT 16/M01 A3016 RMK A01 T01601011  RH  031%=      5-min Rain = 0
KPG1 112227Z 07012KT 16/M01 A3016 RMK A01 T01601011  RH  031%=      5-min Rain = 0
KPG1 112228Z 06011KT 16/M01 A3016 RMK A01 T01621009  RH  031%=      5-min Rain = 0
KPG1 112229Z 06013KT 16/M01 A3016 RMK A01 T01631010  RH  031%=      5-min Rain = 0
KPG1 112230Z 07016G22KT 16/M01 A3016 RMK A01 T01621011  RH  031%=      5-min Rain = 0
KPG1 112231Z 07015G21KT 16/M01 A3016 RMK A01 T01611011  RH  031%=      5-min Rain = 0
KPG1 112232Z 06013KT 16/M01 A3016 RMK A01 T01611011  RH  031%=      5-min Rain = 0
KPG1 112233Z 06013KT 16/M01 A3016 RMK A01 T01611010  RH  031%=      5-min Rain = 0
KPG1 112234Z 06014KT 16/M01 A3017 RMK A01 T01621010  RH  031%=      5-min Rain = 0
KPG1 112235Z 06014KT 16/M01 A3017 RMK A01 T01631011  RH  031%=      5-min Rain = 0
KPG1 112236Z 04015KT 16/M01 A3017 RMK A01 T01631011  RH  030%=      5-min Rain = 0
KPG1 112237Z 05011KT 16/M01 A3017 RMK A01 T01611013  RH  030%=      5-min Rain = 0
KPG1 112238Z 05008KT 16/M01 A3017 RMK A01 T01611012  RH  031%=      5-min Rain = 0
KPG1 112239Z 05010KT 16/M01 A3017 RMK A01 T01611011  RH  031%=      5-min Rain = 0
KPG1 112240Z 04013KT 16/M01 A3017 RMK A01 T01631009  RH  031%=      5-min Rain = 0
KPG1 112241Z 06012KT 16/M01 A3017 RMK A01 T01631009  RH  031%=      5-min Rain = 0
KPG1 112242Z 05011G17KT 16/M01 A3017 RMK A01 T01631009  RH  031%=      5-min Rain = 0
KPG1 112243Z 04016KT 16/M01 A3017 RMK A01 T01631009  RH  031%=      5-min Rain = 0
KPG1 112244Z 03017KT 16/M01 A3016 RMK A01 T01621010  RH  031%=      5-min Rain = 0
KPG1 112245Z 03016KT 16/M01 A3016 RMK A01 T01601010  RH  031%=      5-min Rain = 0
KPG1 112246Z 03015KT 16/M01 A3016 RMK A01 T01601010  RH  031%=      5-min Rain = 0
KPG1 112247Z 03011G17KT 16/M01 A3016 RMK A01 T01601009  RH  032%=      5-min Rain = 0
KPG1 112248Z 04010KT 16/M01 A3016 RMK A01 T01631006  RH  032%=      5-min Rain = 0
KPG1 112249Z 04012G17KT 16/M01 A3017 RMK A01 T01641006  RH  031%=      5-min Rain = 0
KPG1 112250Z 03012KT 17/M01 A3016 RMK A01 T01651008  RH  031%=      5-min Rain = 0
KPG1 112251Z 04012KT 16/M01 A3017 RMK A01 T01641009  RH  031%=      5-min Rain = 0
KPG1 112252Z 04012KT 16/M01 A3017 RMK A01 T01631009  RH  031%=      5-min Rain = 0
KPG1 112253Z 05010KT 16/M01 A3017 RMK A01 T01641009  RH  031%=      5-min Rain = 0
KPG1 112254Z 06014KT 16/M01 A3017 RMK A01 T01641009  RH  031%=      5-min Rain = 0
KPG1 112255Z 06012KT 16/M01 A3017 RMK A01 T01641011  RH  030%=      5-min Rain = 0
KPG1 112256Z 05014G21KT 16/M01 A3017 RMK A01 T01641011  RH  030%=      5-min Rain = 0
KPG1 112257Z 03013KT 16/M01 A3017 RMK A01 T01631012  RH  030%=      5-min Rain = 0
KPG1 112258Z 03013KT 16/M01 A3016 RMK A01 T01631012  RH  030%=      5-min Rain = 0
KPG1 112259Z 03014KT 16/M01 A3016 RMK A01 T01631012  RH  030%=      5-min Rain = 0
KPG1 112300Z 03014KT 16/M01 A3016 RMK A01 T01631013  RH  030%=      5-min Rain = 0
KPG1 112301Z 06015KT 16/M01 A3016 RMK A01 T01631012  RH  030%=      5-min Rain = 0
KPG1 112302Z 06013KT 16/M01 A3016 RMK A01 T01641012  RH  030%=      5-min Rain = 0
KPG1 112303Z 04013G19KT 16/M01 A3016 RMK A01 T01641013  RH  030%=      5-min Rain = 0
KPG1 112304Z 08011KT 17/M01 A3017 RMK A01 T01651011  RH  030%=      5-min Rain = 0
KPG1 112305Z 09012KT 17/M01 A3016 RMK A01 T01671012  RH  029%=      5-min Rain = 0
KPG1 112306Z 06011KT 17/M01 A3016 RMK A01 T01661013  RH  029%=      5-min Rain = 0
KPG1 112307Z 07010KT 17/M01 A3017 RMK A01 T01661013  RH  030%=      5-min Rain = 0
KPG1 112308Z 06016G21KT 17/M01 A3017 RMK A01 T01671012  RH  029%=      5-min Rain = 0
KPG1 112309Z 06017KT 17/M01 A3017 RMK A01 T01661014  RH  029%=      5-min Rain = 0
KPG1 112310Z 06014KT 17/M02 A3017 RMK A01 T01651016  RH  029%=      5-min Rain = 0
KPG1 112311Z 06014KT 17/M02 A3017 RMK A01 T01651016  RH  029%=      5-min Rain = 0
KPG1 112312Z 05012KT 17/M02 A3017 RMK A01 T01651015  RH  029%=      5-min Rain = 0
KPG1 112313Z 06013KT 17/M02 A3017 RMK A01 T01651016  RH  029%=      5-min Rain = 0
KPG1 112314Z 06012G17KT 17/M02 A3017 RMK A01 T01651016  RH  029%=      5-min Rain = 0
KPG1 112315Z 04011KT 17/M02 A3017 RMK A01 T01651016  RH  029%=      5-min Rain = 0
KPG1 112316Z 05014G19KT 17/M02 A3017 RMK A01 T01661016  RH  029%=      5-min Rain = 0
KPG1 112317Z 06015G20KT 17/M02 A3017 RMK A01 T01671016  RH  029%=      5-min Rain = 0
KPG1 112318Z 07016G21KT 17/M02 A3017 RMK A01 T01661018  RH  028%=      5-min Rain = 0
KPG1 112319Z 08018G24KT 17/M02 A3016 RMK A01 T01651018  RH  029%=      5-min Rain = 0
KPG1 112320Z 04017G24KT 17/M02 A3017 RMK A01 T01661017  RH  029%=      5-min Rain = 0
KPG1 112321Z 03020KT 17/M02 A3017 RMK A01 T01671017  RH  028%=      5-min Rain = 0
KPG1 112322Z 04018KT 17/M02 A3017 RMK A01 T01661018  RH  028%=      5-min Rain = 0
KPG1 112323Z 03017G23KT 17/M02 A3017 RMK A01 T01661018  RH  028%=      5-min Rain = 0
KPG1 112324Z 03015KT 17/M02 A3017 RMK A01 T01651018  RH  028%=      5-min Rain = 0
KPG1 112325Z 03014KT 17/M02 A3017 RMK A01 T01661018  RH  028%=      5-min Rain = 0
KPG1 112326Z 04013G18KT 17/M02 A3017 RMK A01 T01661017  RH  029%=      5-min Rain = 0
KPG1 112327Z 04013KT 17/M02 A3017 RMK A01 T01681016  RH  028%=      5-min Rain = 0
KPG1 112328Z 06013G19KT 17/M02 A3017 RMK A01 T01681017  RH  028%=      5-min Rain = 0
KPG1 112329Z 06018KT 17/M02 A3017 RMK A01 T01681017  RH  028%=      5-min Rain = 0
KPG1 112330Z 07016KT 17/M02 A3017 RMK A01 T01681017  RH  028%=      5-min Rain = 0
KPG1 112331Z 05012KT 17/M02 A3017 RMK A01 T01671017  RH  029%=      5-min Rain = 0
KPG1 112332Z 03014KT 17/M02 A3017 RMK A01 T01661017  RH  029%=      5-min Rain = 0
KPG1 112333Z 05014KT 17/M02 A3017 RMK A01 T01681016  RH  029%=      5-min Rain = 0
KPG1 112334Z 05012KT 17/M02 A3017 RMK A01 T01691016  RH  028%=      5-min Rain = 0
KPG1 112335Z 02015KT 17/M02 A3017 RMK A01 T01681016  RH  028%=      5-min Rain = 0
KPG1 112336Z 04013G18KT 17/M02 A3017 RMK A01 T01671018  RH  028%=      5-min Rain = 0
KPG1 112337Z 05011KT 17/M02 A3017 RMK A01 T01661017  RH  029%=      5-min Rain = 0
KPG1 112338Z 04015KT 17/M02 A3017 RMK A01 T01661017  RH  029%=      5-min Rain = 0
KPG1 112339Z 04014G19KT 17/M02 A3017 RMK A01 T01661017  RH  029%=      5-min Rain = 0
KPG1 112340Z 03016G24KT 17/M02 A3017 RMK A01 T01651019  RH  028%=      5-min Rain = 0
KPG1 112341Z 04017KT 17/M02 A3017 RMK A01 T01651020  RH  028%=      5-min Rain = 0
KPG1 112342Z 03017KT 17/M02 A3017 RMK A01 T01651020  RH  028%=      5-min Rain = 0
KPG1 112343Z 03015KT 17/M02 A3017 RMK A01 T01651020  RH  028%=      5-min Rain = 0
KPG1 112344Z 03013KT 16/M02 A3017 RMK A01 T01641021  RH  028%=      5-min Rain = 0
KPG1 112345Z 03020G25KT 16/M02 A3017 RMK A01 T01641020  RH  028%=      5-min Rain = 0
KPG1 112346Z 03019G24KT 16/M02 A3017 RMK A01 T01641020  RH  028%=      5-min Rain = 0
KPG1 112347Z 04018G25KT 16/M02 A3017 RMK A01 T01641020  RH  028%=      5-min Rain = 0
KPG1 112348Z 03018KT 16/M02 A3017 RMK A01 T01631021  RH  028%=      5-min Rain = 0
KPG1 112349Z 05015KT 16/M02 A3017 RMK A01 T01631020  RH  028%=      5-min Rain = 0
KPG1 112350Z 06012KT 16/M02 A3017 RMK A01 T01641020  RH  028%=      5-min Rain = 0
KPG1 112351Z 06014KT 16/M02 A3017 RMK A01 T01641020  RH  028%=      5-min Rain = 0
KPG1 112352Z 04012KT 16/M02 A3017 RMK A01 T01641020  RH  028%=      5-min Rain = 0
KPG1 112353Z 04013KT 16/M02 A3017 RMK A01 T01641021  RH  028%=      5-min Rain = 0
KPG1 112354Z 03019G24KT 16/M02 A3017 RMK A01 T01641021  RH  028%=      5-min Rain = 0
KPG1 112355Z 03018KT 16/M02 A3017 RMK A01 T01621023  RH  028%=      5-min Rain = 0
KPG1 112356Z 03016KT 16/M02 A3017 RMK A01 T01611022  RH  028%=      5-min Rain = 0
KPG1 112357Z 05013KT 16/M02 A3017 RMK A01 T01611022  RH  029%=      5-min Rain = 0
KPG1 112358Z 06010KT 16/M02 A3018 RMK A01 T01611021  RH  029%=      5-min Rain = 0
KPG1 112359Z 05011KT 16/M02 A3018 RMK A01 T01621021  RH  028%=      5-min Rain = 0
KPG1 120000Z 04011KT 16/M02 A3018 RMK A01 T01631021  RH  028%=      5-min Rain = 0
KPG1 120001Z 04014G20KT 16/M02 A3018 RMK A01 T01631021  RH  028%=      5-min Rain = 0
KPG1 120002Z 04015KT 16/M02 A3018 RMK A01 T01611022  RH  028%=      5-min Rain = 0
KPG1 120003Z 04017KT 16/M02 A3018 RMK A01 T01601022  RH  029%=      5-min Rain = 0
KPG1 120004Z 03016KT 16/M02 A3018 RMK A01 T01601021  RH  029%=      5-min Rain = 0
KPG1 120005Z 04017KT 16/M02 A3018 RMK A01 T01601021  RH  029%=      5-min Rain = 0
KPG1 120006Z 04015KT 16/M02 A3018 RMK A01 T01601022  RH  029%=      5-min Rain = 0
KPG1 120007Z 04012KT 16/M02 A3018 RMK A01 T01591022  RH  029%=      5-min Rain = 0
KPG1 120008Z 06011KT 16/M02 A3018 RMK A01 T01601021  RH  029%=      5-min Rain = 0
KPG1 120009Z 05010KT 16/M02 A3018 RMK A01 T01601021  RH  029%=      5-min Rain = 0
KPG1 120010Z 06012G18KT 16/M02 A3018 RMK A01 T01611021  RH  029%=      5-min Rain = 0
KPG1 120011Z 05010KT 16/M02 A3018 RMK A01 T01611021  RH  029%=      5-min Rain = 0
KPG1 120012Z 07013G18KT 16/M02 A3018 RMK A01 T01611021  RH  029%=      5-min Rain = 0
KPG1 120013Z 07017KT 16/M02 A3018 RMK A01 T01611022  RH  029%=      5-min Rain = 0
KPG1 120014Z 07015KT 16/M02 A3018 RMK A01 T01591022  RH  029%=      5-min Rain = 0
KPG1 120015Z 05010KT 16/M02 A3018 RMK A01 T01591022  RH  029%=      5-min Rain = 0
KPG1 120016Z 06013KT 16/M02 A3018 RMK A01 T01601021  RH  029%=      5-min Rain = 0
KPG1 120017Z 07016KT 16/M02 A3018 RMK A01 T01591022  RH  029%=      5-min Rain = 0
KPG1 120018Z 07014KT 16/M02 A3018 RMK A01 T01591022  RH  029%=      5-min Rain = 0
KPG1 120019Z 06016KT 16/M02 A3019 RMK A01 T01591022  RH  029%=      5-min Rain = 0
KPG1 120020Z 07013KT 16/M02 A3018 RMK A01 T01581022  RH  029%=      5-min Rain = 0
KPG1 120021Z 05011KT 16/M02 A3019 RMK A01 T01581021  RH  029%=      5-min Rain = 0
KPG1 120022Z 06010KT 16/M02 A3019 RMK A01 T01591021  RH  029%=      5-min Rain = 0
KPG1 120023Z 06009KT 16/M02 A3019 RMK A01 T01591021  RH  029%=      5-min Rain = 0
KPG1 120024Z 04010KT 16/M02 A3019 RMK A01 T01591021  RH  029%=      5-min Rain = 0
KPG1 120025Z 04011KT 16/M02 A3019 RMK A01 T01591021  RH  029%=      5-min Rain = 0
KPG1 120026Z 04010KT 16/M02 A3019 RMK A01 T01581021  RH  029%=      5-min Rain = 0
KPG1 120027Z 04011KT 16/M02 A3019 RMK A01 T01581021  RH  029%=      5-min Rain = 0
KPG1 120028Z 05011G16KT 16/M02 A3019 RMK A01 T01581022  RH  029%=      5-min Rain = 0
KPG1 120029Z 06011KT 16/M02 A3019 RMK A01 T01581022  RH  029%=      5-min Rain = 0
KPG1 120030Z 05012KT 16/M02 A302 RMK A01 T01581021  RH  029%=      5-min Rain = 0
KPG1 120031Z 06012KT 16/M02 A302 RMK A01 T01581021  RH  029%=      5-min Rain = 0
KPG1 120032Z 05012KT 16/M02 A302 RMK A01 T01571022  RH  029%=      5-min Rain = 0
KPG1 120033Z 07011KT 16/M02 A3019 RMK A01 T01571022  RH  029%=      5-min Rain = 0
KPG1 120034Z 06014KT 16/M02 A3019 RMK A01 T01561022  RH  029%=      5-min Rain = 0
KPG1 120035Z 04013KT 16/M02 A3019 RMK A01 T01561023  RH  029%=      5-min Rain = 0
KPG1 120036Z 04014KT 16/M02 A3019 RMK A01 T01551023  RH  029%=      5-min Rain = 0
KPG1 120037Z 04014KT 16/M02 A3019 RMK A01 T01551024  RH  029%=      5-min Rain = 0
KPG1 120038Z 04013KT 16/M02 A3019 RMK A01 T01551023  RH  029%=      5-min Rain = 0
KPG1 120039Z 04013KT 16/M02 A3019 RMK A01 T01551024  RH  029%=      5-min Rain = 0
KPG1 120040Z 04012KT 15/M02 A302 RMK A01 T01541023  RH  029%=      5-min Rain = 0
KPG1 120041Z 07013KT 15/M02 A3019 RMK A01 T01541023  RH  029%=      5-min Rain = 0
KPG1 120042Z 06010KT 15/M02 A302 RMK A01 T01541023  RH  030%=      5-min Rain = 0
KPG1 120043Z 03011KT 15/M02 A302 RMK A01 T01541023  RH  030%=      5-min Rain = 0
KPG1 120044Z 04011KT 15/M02 A302 RMK A01 T01531022  RH  030%=      5-min Rain = 0
KPG1 120045Z 05010KT 15/M02 A302 RMK A01 T01531022  RH  030%=      5-min Rain = 0
KPG1 120046Z 04011KT 15/M02 A3019 RMK A01 T01521022  RH  030%=      5-min Rain = 0
KPG1 120047Z 05010KT 15/M02 A302 RMK A01 T01521021  RH  030%=      5-min Rain = 0
KPG1 120048Z 06016G21KT 15/M02 A3019 RMK A01 T01521021  RH  030%=      5-min Rain = 0
KPG1 120049Z 06014KT 15/M02 A302 RMK A01 T01521022  RH  030%=      5-min Rain = 0
KPG1 120050Z 07012G17KT 15/M02 A3019 RMK A01 T01521022  RH  030%=      5-min Rain = 0
KPG1 120051Z 06012KT 15/M02 A302 RMK A01 T01521022  RH  030%=      5-min Rain = 0
KPG1 120052Z 06014KT 15/M02 A302 RMK A01 T01511022  RH  030%=      5-min Rain = 0
KPG1 120053Z 06014KT 15/M02 A302 RMK A01 T01511022  RH  030%=      5-min Rain = 0
KPG1 120054Z 06015KT 15/M02 A302 RMK A01 T01511023  RH  030%=      5-min Rain = 0
KPG1 120055Z 06015KT 15/M02 A302 RMK A01 T01511024  RH  030%=      5-min Rain = 0
KPG1 120056Z 06013KT 15/M02 A302 RMK A01 T01511024  RH  030%=      5-min Rain = 0
KPG1 120057Z 06012G17KT 15/M02 A302 RMK A01 T01511023  RH  030%=      5-min Rain = 0
KPG1 120058Z 06013KT 15/M02 A302 RMK A01 T01501024  RH  030%=      5-min Rain = 0
KPG1 120059Z 06014KT 15/M02 A302 RMK A01 T01511024  RH  030%=      5-min Rain = 0
KPG1 120100Z 07013G18KT 15/M02 A302 RMK A01 T01501024  RH  030%=      5-min Rain = 0
KPG1 120101Z 07014KT 15/M02 A302 RMK A01 T01501024  RH  030%=      5-min Rain = 0
KPG1 120102Z 06013KT 15/M02 A302 RMK A01 T01501024  RH  030%=      5-min Rain = 0
KPG1 120103Z 06012KT 15/M02 A302 RMK A01 T01491024  RH  030%=      5-min Rain = 0
KPG1 120104Z 06014KT 15/M02 A302 RMK A01 T01491024  RH  030%=      5-min Rain = 0
KPG1 120105Z 05011KT 15/M03 A302 RMK A01 T01491025  RH  030%=      5-min Rain = 0
KPG1 120106Z 06013KT 15/M03 A302 RMK A01 T01491025  RH  030%=      5-min Rain = 0
KPG1 120107Z 06014KT 15/M03 A302 RMK A01 T01491025  RH  030%=      5-min Rain = 0
KPG1 120108Z 06013KT 15/M03 A302 RMK A01 T01481025  RH  030%=      5-min Rain = 0
KPG1 120109Z 06016KT 15/M03 A302 RMK A01 T01481025  RH  030%=      5-min Rain = 0
KPG1 120110Z 07015KT 15/M03 A302 RMK A01 T01491026  RH  030%=      5-min Rain = 0
KPG1 120111Z 07012KT 15/M03 A302 RMK A01 T01491026  RH  030%=      5-min Rain = 0
KPG1 120112Z 06013KT 15/M03 A302 RMK A01 T01481026  RH  030%=      5-min Rain = 0
KPG1 120113Z 07010KT 15/M03 A302 RMK A01 T01481026  RH  030%=      5-min Rain = 0
KPG1 120114Z 05012G18KT 15/M03 A302 RMK A01 T01481026  RH  030%=      5-min Rain = 0
KPG1 120115Z 05012KT 15/M03 A302 RMK A01 T01481027  RH  030%=      5-min Rain = 0
KPG1 120116Z 06013KT 15/M03 A302 RMK A01 T01481027  RH  030%=      5-min Rain = 0
KPG1 120117Z 06012KT 15/M03 A302 RMK A01 T01481027  RH  030%=      5-min Rain = 0
KPG1 120118Z 06015KT 15/M03 A302 RMK A01 T01481027  RH  030%=      5-min Rain = 0
KPG1 120119Z 07014KT 15/M03 A302 RMK A01 T01481028  RH  030%=      5-min Rain = 0
KPG1 120120Z 06011KT 15/M03 A302 RMK A01 T01481029  RH  030%=      5-min Rain = 0
KPG1 120121Z 06012KT 15/M03 A302 RMK A01 T01481028  RH  030%=      5-min Rain = 0
KPG1 120122Z 06013KT 15/M03 A302 RMK A01 T01471029  RH  030%=      5-min Rain = 0
KPG1 120123Z 06015KT 15/M03 A302 RMK A01 T01471029  RH  030%=      5-min Rain = 0
KPG1 120124Z 06014KT 15/M03 A302 RMK A01 T01471029  RH  030%=      5-min Rain = 0
KPG1 120125Z 06015KT 15/M03 A302 RMK A01 T01471029  RH  030%=      5-min Rain = 0
KPG1 120126Z 06011KT 15/M03 A302 RMK A01 T01471029  RH  029%=      5-min Rain = 0
KPG1 120127Z 05011KT 15/M03 A302 RMK A01 T01471030  RH  029%=      5-min Rain = 0
KPG1 120128Z 06013G18KT 15/M03 A3021 RMK A01 T01471030  RH  029%=      5-min Rain = 0
KPG1 120129Z 06012KT 15/M03 A3021 RMK A01 T01471030  RH  029%=      5-min Rain = 0
KPG1 120130Z 06010KT 15/M03 A3021 RMK A01 T01471030  RH  029%=      5-min Rain = 0
KPG1 120131Z 05011KT 15/M03 A3021 RMK A01 T01471030  RH  029%=      5-min Rain = 0
KPG1 120132Z 05011KT 15/M03 A3021 RMK A01 T01471030  RH  029%=      5-min Rain = 0
KPG1 120133Z 06012KT 15/M03 A3021 RMK A01 T01461031  RH  029%=      5-min Rain = 0
KPG1 120134Z 06012KT 15/M03 A3021 RMK A01 T01461031  RH  029%=      5-min Rain = 0
KPG1 120135Z 05009KT 15/M03 A3021 RMK A01 T01461031  RH  029%=      5-min Rain = 0
KPG1 120136Z 06012KT 15/M03 A3021 RMK A01 T01461031  RH  029%=      5-min Rain = 0
KPG1 120137Z 06012G17KT 15/M03 A3021 RMK A01 T01461030  RH  029%=      5-min Rain = 0
KPG1 120138Z 06012KT 15/M03 A3021 RMK A01 T01461030  RH  029%=      5-min Rain = 0
KPG1 120139Z 06010KT 15/M03 A3021 RMK A01 T01461030  RH  029%=      5-min Rain = 0
KPG1 120140Z 07007G12KT 15/M03 A3021 RMK A01 T01461029  RH  030%=      5-min Rain = 0
KPG1 120141Z 06010KT 15/M03 A3021 RMK A01 T01461030  RH  030%=      5-min Rain = 0
KPG1 120142Z 06012KT 15/M03 A3021 RMK A01 T01461029  RH  030%=      5-min Rain = 0
KPG1 120143Z 06010KT 15/M03 A3021 RMK A01 T01461029  RH  030%=      5-min Rain = 0
KPG1 120144Z 07011KT 15/M03 A3021 RMK A01 T01461029  RH  030%=      5-min Rain = 0
KPG1 120145Z 06010KT 15/M03 A3021 RMK A01 T01461029  RH  030%=      5-min Rain = 0
KPG1 120146Z 06011KT 15/M03 A3021 RMK A01 T01461029  RH  030%=      5-min Rain = 0
KPG1 120147Z 06009KT 15/M03 A3021 RMK A01 T01461029  RH  030%=      5-min Rain = 0
KPG1 120148Z 06009KT 15/M03 A3021 RMK A01 T01461028  RH  030%=      5-min Rain = 0
KPG1 120149Z 05010KT 15/M03 A3021 RMK A01 T01451028  RH  030%=      5-min Rain = 0
KPG1 120150Z 06009KT 15/M03 A3022 RMK A01 T01451028  RH  030%=      5-min Rain = 0
KPG1 120151Z 06009KT 15/M03 A3022 RMK A01 T01451028  RH  030%=      5-min Rain = 0
KPG1 120152Z 05014KT 15/M03 A3022 RMK A01 T01451028  RH  030%=      5-min Rain = 0
KPG1 120153Z 06011KT 15/M03 A3022 RMK A01 T01451027  RH  030%=      5-min Rain = 0
KPG1 120154Z 05012G17KT 15/M03 A3022 RMK A01 T01451028  RH  030%=      5-min Rain = 0
KPG1 120155Z 05013KT 15/M03 A3022 RMK A01 T01451028  RH  030%=      5-min Rain = 0
KPG1 120156Z 06011KT 15/M03 A3022 RMK A01 T01451028  RH  030%=      5-min Rain = 0
KPG1 120157Z 06010KT 15/M03 A3022 RMK A01 T01451028  RH  030%=      5-min Rain = 0
KPG1 120158Z 06013KT 15/M03 A3022 RMK A01 T01451027  RH  030%=      5-min Rain = 0
KPG1 120159Z 06011KT 15/M03 A3022 RMK A01 T01451028  RH  030%=      5-min Rain = 0
KPG1 120200Z 06010KT 15/M03 A3022 RMK A01 T01451028  RH  030%=      5-min Rain = 0
KPG1 120201Z 06011KT 15/M03 A3022 RMK A01 T01451028  RH  030%=      5-min Rain = 0
KPG1 120202Z 08012KT 15/M03 A3022 RMK A01 T01451028  RH  030%=      5-min Rain = 0
KPG1 120203Z 05009KT 14/M03 A3022 RMK A01 T01441028  RH  030%=      5-min Rain = 0
KPG1 120204Z 06009KT 14/M03 A3022 RMK A01 T01441028  RH  030%=      5-min Rain = 0
KPG1 120205Z 07010KT 14/M03 A3022 RMK A01 T01441028  RH  030%=      5-min Rain = 0
KPG1 120206Z 06009KT 14/M03 A3022 RMK A01 T01441029  RH  030%=      5-min Rain = 0
KPG1 120207Z 06010KT 14/M03 A3022 RMK A01 T01441029  RH  030%=      5-min Rain = 0
KPG1 120208Z 07013KT 15/M03 A3022 RMK A01 T01451029  RH  030%=      5-min Rain = 0
KPG1 120209Z 06010KT 15/M03 A3022 RMK A01 T01451029  RH  030%=      5-min Rain = 0
KPG1 120210Z 06008KT 15/M03 A3022 RMK A01 T01451029  RH  030%=      5-min Rain = 0
KPG1 120211Z 05011KT 14/M03 A3022 RMK A01 T01441029  RH  030%=      5-min Rain = 0
KPG1 120212Z 07012KT 14/M03 A3022 RMK A01 T01441029  RH  030%=      5-min Rain = 0
KPG1 120213Z 07010KT 14/M03 A3022 RMK A01 T01441030  RH  030%=      5-min Rain = 0
KPG1 120214Z 05007KT 14/M03 A3022 RMK A01 T01441030  RH  030%=      5-min Rain = 0
KPG1 120215Z 06008KT 14/M03 A3023 RMK A01 T01441030  RH  030%=      5-min Rain = 0
KPG1 120216Z 05009KT 14/M03 A3023 RMK A01 T01441030  RH  030%=      5-min Rain = 0
KPG1 120217Z 05008KT 14/M03 A3023 RMK A01 T01441030  RH  030%=      5-min Rain = 0
KPG1 120218Z 05010KT 14/M03 A3023 RMK A01 T01441030  RH  030%=      5-min Rain = 0
KPG1 120219Z 06007KT 14/M03 A3022 RMK A01 T01431030  RH  030%=      5-min Rain = 0
KPG1 120220Z 04010KT 14/M03 A3022 RMK A01 T01441030  RH  030%=      5-min Rain = 0
KPG1 120221Z 05009KT 14/M03 A3022 RMK A01 T01431031  RH  030%=      5-min Rain = 0
KPG1 120222Z 05009KT 14/M03 A3022 RMK A01 T01431031  RH  030%=      5-min Rain = 0
KPG1 120223Z 05010KT 14/M03 A3022 RMK A01 T01431031  RH  030%=      5-min Rain = 0
KPG1 120224Z 06010KT 14/M03 A3022 RMK A01 T01431032  RH  030%=      5-min Rain = 0
KPG1 120225Z 05010KT 14/M03 A3023 RMK A01 T01431033  RH  030%=      5-min Rain = 0
KPG1 120226Z 05009KT 14/M03 A3023 RMK A01 T01431033  RH  030%=      5-min Rain = 0
KPG1 120227Z 03011KT 14/M03 A3022 RMK A01 T01431033  RH  029%=      5-min Rain = 0
KPG1 120228Z 03013KT 14/M04 A3022 RMK A01 T01431036  RH  029%=      5-min Rain = 0
KPG1 120229Z 03013KT 14/M04 A3022 RMK A01 T01431038  RH  028%=      5-min Rain = 0
KPG1 120230Z 04013KT 14/M04 A3022 RMK A01 T01431039  RH  028%=      5-min Rain = 0
KPG1 120231Z 05012KT 14/M04 A3023 RMK A01 T01431040  RH  028%=      5-min Rain = 0
KPG1 120232Z 04013KT 14/M04 A3023 RMK A01 T01431040  RH  028%=      5-min Rain = 0
KPG1 120233Z 04012KT 14/M04 A3023 RMK A01 T01431043  RH  027%=      5-min Rain = 0
KPG1 120234Z 05011KT 14/M04 A3023 RMK A01 T01431043  RH  027%=      5-min Rain = 0
KPG1 120235Z 04013KT 14/M04 A3023 RMK A01 T01431044  RH  027%=      5-min Rain = 0
KPG1 120236Z 03011G17KT 14/M05 A3023 RMK A01 T01431045  RH  027%=      5-min Rain = 0
KPG1 120237Z 04014KT 14/M05 A3023 RMK A01 T01431046  RH  027%=      5-min Rain = 0
KPG1 120238Z 05010KT 14/M05 A3023 RMK A01 T01431047  RH  026%=      5-min Rain = 0
KPG1 120239Z 05011KT 14/M05 A3023 RMK A01 T01431048  RH  026%=      5-min Rain = 0
KPG1 120240Z 06012KT 14/M05 A3023 RMK A01 T01431047  RH  026%=      5-min Rain = 0
KPG1 120241Z 07011KT 14/M05 A3023 RMK A01 T01431048  RH  026%=      5-min Rain = 0
KPG1 120242Z 06011KT 14/M05 A3023 RMK A01 T01431050  RH  026%=      5-min Rain = 0
KPG1 120243Z 05011KT 14/M05 A3023 RMK A01 T01421051  RH  026%=      5-min Rain = 0
KPG1 120244Z 05011KT 14/M05 A3023 RMK A01 T01431052  RH  025%=      5-min Rain = 0
KPG1 120245Z 06014KT 14/M05 A3023 RMK A01 T01421053  RH  025%=      5-min Rain = 0
KPG1 120246Z 06015KT 14/M06 A3023 RMK A01 T01431055  RH  025%=      5-min Rain = 0
KPG1 120247Z 06013KT 14/M06 A3023 RMK A01 T01431055  RH  025%=      5-min Rain = 0
KPG1 120248Z 06014KT 14/M06 A3023 RMK A01 T01431056  RH  025%=      5-min Rain = 0
KPG1 120249Z 06013KT 14/M06 A3024 RMK A01 T01431057  RH  025%=      5-min Rain = 0
KPG1 120250Z 06013G18KT 14/M06 A3024 RMK A01 T01431058  RH  024%=      5-min Rain = 0
KPG1 120251Z 06013G18KT 14/M06 A3024 RMK A01 T01431059  RH  024%=      5-min Rain = 0
KPG1 120252Z 06012KT 14/M06 A3024 RMK A01 T01431060  RH  024%=      5-min Rain = 0
KPG1 120253Z 05010KT 14/M06 A3024 RMK A01 T01431060  RH  024%=      5-min Rain = 0
KPG1 120254Z 05011KT 14/M06 A3024 RMK A01 T01431061  RH  024%=      5-min Rain = 0
KPG1 120255Z 04013KT 14/M06 A3024 RMK A01 T01431061  RH  024%=      5-min Rain = 0
KPG1 120256Z 04011KT 14/M06 A3024 RMK A01 T01431062  RH  024%=      5-min Rain = 0
KPG1 120257Z 05013KT 14/M06 A3024 RMK A01 T01431062  RH  024%=      5-min Rain = 0
KPG1 120258Z 05010KT 14/M06 A3024 RMK A01 T01421063  RH  024%=      5-min Rain = 0
KPG1 120259Z 06011KT 14/M06 A3024 RMK A01 T01421063  RH  024%=      5-min Rain = 0
KPG1 120300Z 06012KT 14/M06 A3024 RMK A01 T01421064  RH  023%=      5-min Rain = 0
KPG1 120301Z 06013KT 14/M06 A3024 RMK A01 T01421064  RH  023%=      5-min Rain = 0
KPG1 120302Z 04010G15KT 14/M07 A3024 RMK A01 T01421065  RH  023%=      5-min Rain = 0
KPG1 120303Z 04011KT 14/M07 A3024 RMK A01 T01421065  RH  023%=      5-min Rain = 0
KPG1 120304Z 04011KT 14/M07 A3024 RMK A01 T01421065  RH  023%=      5-min Rain = 0
KPG1 120305Z 03012KT 14/M07 A3024 RMK A01 T01421065  RH  023%=      5-min Rain = 0
KPG1 120306Z 04010KT 14/M07 A3024 RMK A01 T01421066  RH  023%=      5-min Rain = 0
KPG1 120307Z 05012KT 14/M07 A3025 RMK A01 T01411066  RH  023%=      5-min Rain = 0
KPG1 120308Z 05008KT 14/M07 A3025 RMK A01 T01411066  RH  023%=      5-min Rain = 0
KPG1 120309Z 03013KT 14/M07 A3025 RMK A01 T01411066  RH  023%=      5-min Rain = 0
KPG1 120310Z 04013KT 14/M07 A3025 RMK A01 T01411067  RH  023%=      5-min Rain = 0
KPG1 120311Z 04012G18KT 14/M07 A3025 RMK A01 T01411067  RH  023%=      5-min Rain = 0
KPG1 120312Z 05011KT 14/M07 A3025 RMK A01 T01411068  RH  023%=      5-min Rain = 0
KPG1 120313Z 06013KT 14/M07 A3025 RMK A01 T01411068  RH  023%=      5-min Rain = 0
KPG1 120314Z 04013KT 14/M07 A3025 RMK A01 T01411067  RH  023%=      5-min Rain = 0
KPG1 120315Z 04012G17KT 14/M07 A3025 RMK A01 T01411068  RH  023%=      5-min Rain = 0
KPG1 120316Z 05013KT 14/M07 A3025 RMK A01 T01411068  RH  023%=      5-min Rain = 0
KPG1 120317Z 06012KT 14/M07 A3025 RMK A01 T01411068  RH  023%=      5-min Rain = 0
KPG1 120318Z 05011KT 14/M07 A3025 RMK A01 T01401069  RH  023%=      5-min Rain = 0
KPG1 120319Z 06012KT 14/M07 A3025 RMK A01 T01401068  RH  023%=      5-min Rain = 0
KPG1 120320Z 05011KT 14/M07 A3025 RMK A01 T01401069  RH  023%=      5-min Rain = 0
KPG1 120321Z 04011KT 14/M07 A3025 RMK A01 T01391068  RH  023%=      5-min Rain = 0
KPG1 120322Z 05010KT 14/M07 A3025 RMK A01 T01391068  RH  023%=      5-min Rain = 0
KPG1 120323Z 05010KT 14/M07 A3025 RMK A01 T01391068  RH  023%=      5-min Rain = 0
KPG1 120324Z 05010KT 14/M07 A3025 RMK A01 T01391068  RH  023%=      5-min Rain = 0
KPG1 120325Z 05010KT 14/M07 A3025 RMK A01 T01391068  RH  023%=      5-min Rain = 0
KPG1 120326Z 05011KT 14/M07 A3025 RMK A01 T01381068  RH  023%=      5-min Rain = 0
KPG1 120327Z 06013KT 14/M07 A3025 RMK A01 T01391067  RH  023%=      5-min Rain = 0
KPG1 120328Z 06012G17KT 14/M07 A3025 RMK A01 T01381068  RH  023%=      5-min Rain = 0
KPG1 120329Z 05010KT 14/M07 A3025 RMK A01 T01381068  RH  023%=      5-min Rain = 0
KPG1 120330Z 05010KT 14/M07 A3025 RMK A01 T01381068  RH  023%=      5-min Rain = 0
KPG1 120331Z 06013KT 14/M07 A3025 RMK A01 T01381068  RH  023%=      5-min Rain = 0
KPG1 120332Z 06010KT 14/M07 A3025 RMK A01 T01381068  RH  023%=      5-min Rain = 0
KPG1 120333Z 03010KT 14/M07 A3025 RMK A01 T01381068  RH  023%=      5-min Rain = 0
KPG1 120334Z 05008KT 14/M07 A3025 RMK A01 T01381068  RH  023%=      5-min Rain = 0
KPG1 120335Z 04009KT 14/M07 A3025 RMK A01 T01371068  RH  023%=      5-min Rain = 0
KPG1 120336Z 05009KT 14/M07 A3025 RMK A01 T01381067  RH  023%=      5-min Rain = 0
KPG1 120337Z 03011KT 14/M07 A3026 RMK A01 T01381067  RH  024%=      5-min Rain = 0
KPG1 120338Z 04011KT 14/M07 A3026 RMK A01 T01371067  RH  024%=      5-min Rain = 0
KPG1 120339Z 04010G15KT 14/M07 A3026 RMK A01 T01371067  RH  024%=      5-min Rain = 0
KPG1 120340Z 04009G14KT 14/M07 A3026 RMK A01 T01371066  RH  024%=      5-min Rain = 0
KPG1 120341Z 04011G16KT 14/M07 A3026 RMK A01 T01371067  RH  024%=      5-min Rain = 0
KPG1 120342Z 05011KT 14/M07 A3026 RMK A01 T01371066  RH  024%=      5-min Rain = 0
KPG1 120343Z 05008KT 14/M07 A3026 RMK A01 T01371066  RH  024%=      5-min Rain = 0
KPG1 120344Z 04008KT 14/M07 A3026 RMK A01 T01371066  RH  024%=      5-min Rain = 0
KPG1 120345Z 03009G14KT 14/M07 A3026 RMK A01 T01361066  RH  024%=      5-min Rain = 0
KPG1 120346Z 04011KT 14/M07 A3026 RMK A01 T01361066  RH  024%=      5-min Rain = 0
KPG1 120347Z 04010KT 14/M07 A3026 RMK A01 T01361066  RH  024%=      5-min Rain = 0
KPG1 120348Z 03011G16KT 14/M07 A3026 RMK A01 T01361066  RH  024%=      5-min Rain = 0
KPG1 120349Z 03013KT 14/M07 A3026 RMK A01 T01361066  RH  024%=      5-min Rain = 0
KPG1 120350Z 04014KT 14/M07 A3026 RMK A01 T01361066  RH  024%=      5-min Rain = 0
KPG1 120351Z 03014KT 14/M07 A3026 RMK A01 T01361066  RH  024%=      5-min Rain = 0
KPG1 120352Z 03012KT 14/M07 A3026 RMK A01 T01371065  RH  024%=      5-min Rain = 0
KPG1 120353Z 03014KT 14/M07 A3026 RMK A01 T01361066  RH  024%=      5-min Rain = 0
KPG1 120354Z 03012G19KT 14/M07 A3026 RMK A01 T01361066  RH  024%=      5-min Rain = 0
KPG1 120355Z 03016KT 14/M07 A3026 RMK A01 T01361066  RH  024%=      5-min Rain = 0
KPG1 120356Z 03014G20KT 14/M07 A3026 RMK A01 T01361065  RH  024%=      5-min Rain = 0
KPG1 120357Z 04011KT 14/M06 A3026 RMK A01 T01361064  RH  024%=      5-min Rain = 0
KPG1 120358Z 04012KT 14/M07 A3026 RMK A01 T01361065  RH  024%=      5-min Rain = 0
KPG1 120359Z 05011KT 14/M06 A3026 RMK A01 T01361064  RH  024%=      5-min Rain = 0
KPG1 120400Z 05010KT 14/M06 A3026 RMK A01 T01361064  RH  024%=      5-min Rain = 0
KPG1 120401Z 04008KT 14/M06 A3026 RMK A01 T01351064  RH  024%=      5-min Rain = 0
KPG1 120402Z 03010KT 14/M06 A3026 RMK A01 T01351064  RH  025%=      5-min Rain = 0
KPG1 120403Z 03010KT 14/M06 A3026 RMK A01 T01351064  RH  025%=      5-min Rain = 0
KPG1 120404Z 03012KT 14/M06 A3026 RMK A01 T01351064  RH  025%=      5-min Rain = 0
KPG1 120405Z 03014KT 14/M06 A3027 RMK A01 T01351064  RH  025%=      5-min Rain = 0
KPG1 120406Z 02015G22KT 14/M06 A3026 RMK A01 T01351064  RH  024%=      5-min Rain = 0
KPG1 120407Z 03015KT 14/M06 A3026 RMK A01 T01351064  RH  024%=      5-min Rain = 0
KPG1 120408Z 03013KT 14/M06 A3026 RMK A01 T01351064  RH  024%=      5-min Rain = 0
KPG1 120409Z 03014G20KT 14/M06 A3026 RMK A01 T01361063  RH  025%=      5-min Rain = 0
KPG1 120410Z 03014KT 14/M06 A3027 RMK A01 T01351064  RH  025%=      5-min Rain = 0
KPG1 120411Z 03016KT 14/M06 A3027 RMK A01 T01351064  RH  025%=      5-min Rain = 0
KPG1 120412Z 03014KT 14/M06 A3027 RMK A01 T01351064  RH  025%=      5-min Rain = 0
KPG1 120413Z 03015KT 14/M06 A3027 RMK A01 T01361063  RH  025%=      5-min Rain = 0
KPG1 120414Z 04012KT 14/M06 A3027 RMK A01 T01351063  RH  025%=      5-min Rain = 0
KPG1 120415Z 03016KT 14/M06 A3027 RMK A01 T01351063  RH  025%=      5-min Rain = 0
KPG1 120416Z 03013KT 14/M06 A3027 RMK A01 T01351064  RH  025%=      5-min Rain = 0
KPG1 120417Z 03013KT 14/M06 A3027 RMK A01 T01351064  RH  025%=      5-min Rain = 0
KPG1 120418Z 03013KT 14/M06 A3027 RMK A01 T01351063  RH  025%=      5-min Rain = 0
KPG1 120419Z 03014KT 13/M06 A3027 RMK A01 T01341062  RH  025%=      5-min Rain = 0
KPG1 120420Z 05012G17KT 13/M06 A3027 RMK A01 T01341063  RH  025%=      5-min Rain = 0
KPG1 120421Z 03014G23KT 13/M06 A3027 RMK A01 T01341063  RH  025%=      5-min Rain = 0
KPG1 120422Z 04013G18KT 13/M06 A3027 RMK A01 T01341063  RH  025%=      5-min Rain = 0
KPG1 120423Z 03013KT 13/M06 A3027 RMK A01 T01341063  RH  025%=      5-min Rain = 0
KPG1 120424Z 04011KT 13/M06 A3027 RMK A01 T01341063  RH  025%=      5-min Rain = 0
KPG1 120425Z 03012G17KT 13/M06 A3027 RMK A01 T01331062  RH  025%=      5-min Rain = 0
KPG1 120426Z 03014G19KT 13/M06 A3027 RMK A01 T01331062  RH  025%=      5-min Rain = 0
KPG1 120427Z 03012G17KT 13/M06 A3027 RMK A01 T01331061  RH  025%=      5-min Rain = 0
KPG1 120428Z 03015G20KT 13/M06 A3027 RMK A01 T01341061  RH  025%=      5-min Rain = 0
KPG1 120429Z 02014G19KT 13/M06 A3027 RMK A01 T01341061  RH  025%=      5-min Rain = 0
KPG1 120430Z 02015G20KT 13/M06 A3027 RMK A01 T01331062  RH  025%=      5-min Rain = 0
KPG1 120431Z 03014KT 13/M06 A3027 RMK A01 T01331062  RH  025%=      5-min Rain = 0
KPG1 120432Z 03014KT 13/M06 A3027 RMK A01 T01341061  RH  025%=      5-min Rain = 0
KPG1 120433Z 03013KT 13/M06 A3027 RMK A01 T01331061  RH  025%=      5-min Rain = 0
KPG1 120434Z 03013KT 13/M06 A3027 RMK A01 T01331061  RH  025%=      5-min Rain = 0
KPG1 120435Z 03013KT 13/M06 A3027 RMK A01 T01331061  RH  025%=      5-min Rain = 0
KPG1 120436Z 03015G21KT 13/M06 A3027 RMK A01 T01331061  RH  025%=      5-min Rain = 0
KPG1 120437Z 03014KT 13/M06 A3028 RMK A01 T01331061  RH  025%=      5-min Rain = 0
KPG1 120438Z 02016KT 13/M06 A3027 RMK A01 T01341061  RH  025%=      5-min Rain = 0
KPG1 120439Z 03014KT 13/M06 A3027 RMK A01 T01341061  RH  025%=      5-min Rain = 0
KPG1 120440Z 03016KT 13/M06 A3027 RMK A01 T01341061  RH  025%=      5-min Rain = 0
KPG1 120441Z 03017G23KT 13/M06 A3027 RMK A01 T01331061  RH  025%=      5-min Rain = 0
KPG1 120442Z 02016KT 13/M06 A3028 RMK A01 T01331061  RH  025%=      5-min Rain = 0
KPG1 120443Z 02013KT 13/M06 A3028 RMK A01 T01341061  RH  025%=      5-min Rain = 0
KPG1 120444Z 03013KT 13/M06 A3028 RMK A01 T01341061  RH  025%=      5-min Rain = 0
KPG1 120445Z 04012KT 13/M06 A3028 RMK A01 T01341062  RH  025%=      5-min Rain = 0
KPG1 120446Z 04014KT 13/M06 A3028 RMK A01 T01331062  RH  025%=      5-min Rain = 0
KPG1 120447Z 04013KT 13/M06 A3028 RMK A01 T01331063  RH  025%=      5-min Rain = 0
KPG1 120448Z 05012KT 13/M06 A3028 RMK A01 T01331063  RH  025%=      5-min Rain = 0
KPG1 120449Z 04011KT 13/M06 A3028 RMK A01 T01331063  RH  025%=      5-min Rain = 0
KPG1 120450Z 04012KT 13/M06 A3028 RMK A01 T01331063  RH  025%=      5-min Rain = 0
KPG1 120451Z 03015KT 13/M06 A3028 RMK A01 T01321063  RH  025%=      5-min Rain = 0
KPG1 120452Z 04012KT 13/M06 A3028 RMK A01 T01331062  RH  025%=      5-min Rain = 0
KPG1 120453Z 03012KT 13/M06 A3029 RMK A01 T01331060  RH  026%=      5-min Rain = 0
KPG1 120454Z 04012KT 13/M06 A3029 RMK A01 T01321060  RH  026%=      5-min Rain = 0
KPG1 120455Z 04012KT 13/M06 A3028 RMK A01 T01321061  RH  026%=      5-min Rain = 0
KPG1 120456Z 04013KT 13/M06 A3028 RMK A01 T01321063  RH  025%=      5-min Rain = 0
KPG1 120457Z 05012KT 13/M07 A3028 RMK A01 T01311065  RH  025%=      5-min Rain = 0
KPG1 120458Z 06012KT 13/M07 A3028 RMK A01 T01311066  RH  025%=      5-min Rain = 0
KPG1 120459Z 06013KT 13/M07 A3028 RMK A01 T01311066  RH  025%=      5-min Rain = 0

Page generated in 0.0319 seconds.